Wetterdaten: Montag, 12.08.2019
Datum Zeit Temp. Aussen Temp. o. S. +5cm Feuchte Auss Luftdruck Regen Sonnenschein Regendauer Solar Windben Empfang
12.08.2019 00:00 18,4 C 16,7 C 16,7 C 68 % 1015,0 hPa 0,0 l/m 0 min 0 min 0 W/m 6,4 km/h (2 Bft) 97,87 %
12.08.2019 00:02 18,4 C 16,7 C 16,7 C 68 % 1015,0 hPa 0,0 l/m 0 min 0 min 0 W/m 9,7 km/h (2 Bft) 94,87 %
12.08.2019 00:04 18,4 C 16,7 C 16,7 C 68 % 1015,1 hPa 0,0 l/m 0 min 0 min 0 W/m 12,9 km/h (3 Bft) 95,74 %
12.08.2019 00:08 18,3 C 16,7 C 16,7 C 68 % 1015,1 hPa 0,0 l/m 0 min 0 min 0 W/m 6,4 km/h (2 Bft) 97,85 %
12.08.2019 00:10 18,3 C 16,7 C 16,7 C 68 % 1015,1 hPa 0,0 l/m 0 min 0 min 0 W/m 6,4 km/h (2 Bft) 95,74 %
12.08.2019 00:12 18,2 C 16,7 C 16,7 C 68 % 1015,0 hPa 0,0 l/m 0 min 0 min 0 W/m 6,4 km/h (2 Bft) 97,87 %
12.08.2019 00:14 18,2 C 16,7 C 16,7 C 68 % 1015,1 hPa 0,0 l/m 0 min 0 min 0 W/m 6,4 km/h (2 Bft) 97,87 %
12.08.2019 00:16 18,2 C 16,7 C 16,7 C 69 % 1015,1 hPa 0,0 l/m 0 min 0 min 0 W/m 9,7 km/h (2 Bft) 95,74 %
12.08.2019 00:18 18,1 C 16,7 C 16,7 C 69 % 1015,1 hPa 0,0 l/m 0 min 0 min 0 W/m 9,7 km/h (2 Bft) 95,65 %
12.08.2019 00:20 18,1 C 16,7 C 16,7 C 69 % 1015,1 hPa 0,0 l/m 0 min 0 min 0 W/m 6,4 km/h (2 Bft) 93,62 %
12.08.2019 00:22 18,1 C 16,7 C 16,7 C 69 % 1015,1 hPa 0,0 l/m 0 min 0 min 0 W/m 9,7 km/h (2 Bft) 95,74 %
12.08.2019 00:24 18,0 C 16,7 C 16,7 C 69 % 1015,0 hPa 0,0 l/m 0 min 0 min 0 W/m 6,4 km/h (2 Bft) 95,74 %
12.08.2019 00:26 17,9 C 16,1 C 16,7 C 69 % 1015,0 hPa 0,0 l/m 0 min 0 min 0 W/m 6,4 km/h (2 Bft) 93,62 %
12.08.2019 00:28 17,9 C 16,1 C 16,7 C 69 % 1015,1 hPa 0,0 l/m 0 min 0 min 0 W/m 6,4 km/h (2 Bft) 95,74 %
12.08.2019 00:30 17,9 C 16,1 C 16,1 C 70 % 1015,0 hPa 0,0 l/m 0 min 0 min 0 W/m 6,4 km/h (2 Bft) 95,65 %
12.08.2019 00:32 17,8 C 16,1 C 16,1 C 69 % 1015,0 hPa 0,0 l/m 0 min 0 min 0 W/m 6,4 km/h (2 Bft) 91,49 %
12.08.2019 00:34 17,8 C 16,1 C 16,1 C 70 % 1015,1 hPa 0,0 l/m 0 min 0 min 0 W/m 6,4 km/h (2 Bft) 95,74 %
12.08.2019 00:36 17,8 C 16,1 C 16,1 C 70 % 1015,1 hPa 0,0 l/m 0 min 0 min 0 W/m 9,7 km/h (2 Bft) 95,74 %
12.08.2019 00:38 17,7 C 16,1 C 16,1 C 70 % 1015,1 hPa 0,0 l/m 0 min 0 min 0 W/m 6,4 km/h (2 Bft) 93,62 %
12.08.2019 00:40 17,7 C 16,1 C 16,1 C 70 % 1015,1 hPa 0,0 l/m 0 min 0 min 0 W/m 6,4 km/h (2 Bft) 95,74 %
12.08.2019 00:42 17,7 C 16,1 C 16,1 C 70 % 1015,1 hPa 0,0 l/m 0 min 0 min 0 W/m 9,7 km/h (2 Bft) 95,65 %
12.08.2019 00:44 17,7 C 15,6 C 15,6 C 70 % 1015,1 hPa 0,0 l/m 0 min 0 min 0 W/m 3,2 km/h (1 Bft) 98,00 %
12.08.2019 00:46 17,6 C 15,6 C 15,6 C 70 % 1015,0 hPa 0,0 l/m 0 min 0 min 0 W/m 3,2 km/h (1 Bft) 97,96 %
12.08.2019 00:48 17,6 C 15,6 C 15,6 C 70 % 1015,0 hPa 0,0 l/m 0 min 0 min 0 W/m 0,0 km/h (0 Bft) 97,14 %
12.08.2019 00:50 17,6 C 15,6 C 15,6 C 71 % 1015,0 hPa 0,0 l/m 0 min 0 min 0 W/m 3,2 km/h (1 Bft) 98,15 %
12.08.2019 00:52 17,5 C 15,6 C 15,6 C 71 % 1015,0 hPa 0,0 l/m 0 min 0 min 0 W/m 3,2 km/h (1 Bft) 97,96 %
12.08.2019 00:54 17,4 C 15,6 C 15,0 C 71 % 1015,0 hPa 0,0 l/m 0 min 0 min 0 W/m 0,0 km/h (0 Bft) 95,92 %
12.08.2019 00:56 17,4 C 15,6 C 15,0 C 71 % 1015,0 hPa 0,0 l/m 0 min 0 min 0 W/m 0,0 km/h (0 Bft) 100,00 %
12.08.2019 00:58 17,4 C 15,6 C 15,0 C 71 % 1015,0 hPa 0,0 l/m 0 min 0 min 0 W/m 6,4 km/h (2 Bft) 98,15 %
12.08.2019 01:00 17,3 C 15,6 C 15,0 C 71 % 1015,1 hPa 0,0 l/m 0 min 0 min 0 W/m 3,2 km/h (1 Bft) 98,00 %
12.08.2019 01:02 17,3 C 15,6 C 15,0 C 71 % 1015,1 hPa 0,0 l/m 0 min 0 min 0 W/m 3,2 km/h (1 Bft) 97,96 %
12.08.2019 01:04 17,3 C 15,6 C 15,0 C 72 % 1015,1 hPa 0,0 l/m 0 min 0 min 0 W/m 3,2 km/h (1 Bft) 97,14 %
12.08.2019 01:06 17,2 C 15,6 C 15,0 C 72 % 1015,0 hPa 0,0 l/m 0 min 0 min 0 W/m 3,2 km/h (1 Bft) 98,11 %
12.08.2019 01:08 17,2 C 15,6 C 15,0 C 72 % 1014,9 hPa 0,0 l/m 0 min 0 min 0 W/m 3,2 km/h (1 Bft) 98,00 %
12.08.2019 01:10 17,2 C 15,6 C 15,0 C 72 % 1015,0 hPa 0,0 l/m 0 min 0 min 0 W/m 6,4 km/h (2 Bft) 100,00 %
12.08.2019 01:12 17,1 C 15,6 C 15,0 C 72 % 1014,9 hPa 0,0 l/m 0 min 0 min 0 W/m 6,4 km/h (2 Bft) 100,00 %
12.08.2019 01:14 17,1 C 15,6 C 15,0 C 72 % 1014,9 hPa 0,0 l/m 0 min 0 min 0 W/m 9,7 km/h (2 Bft) 100,00 %
12.08.2019 01:16 17,0 C 15,6 C 15,0 C 72 % 1014,9 hPa 0,0 l/m 0 min 0 min 0 W/m 12,9 km/h (3 Bft) 100,00 %
12.08.2019 01:18 17,0 C 15,6 C 15,6 C 72 % 1014,9 hPa 0,0 l/m 0 min 0 min 0 W/m 9,7 km/h (2 Bft) 100,00 %
12.08.2019 01:20 16,9 C 15,6 C 15,6 C 72 % 1014,9 hPa 0,0 l/m 0 min 0 min 0 W/m 9,7 km/h (2 Bft) 100,00 %
12.08.2019 01:22 16,9 C 15,6 C 15,6 C 73 % 1015,0 hPa 0,0 l/m 0 min 0 min 0 W/m 6,4 km/h (2 Bft) 94,29 %
12.08.2019 01:24 16,9 C 15,6 C 15,6 C 73 % 1014,9 hPa 0,0 l/m 0 min 0 min 0 W/m 12,9 km/h (3 Bft) 98,15 %
12.08.2019 01:26 16,8 C 15,6 C 15,6 C 73 % 1014,9 hPa 0,0 l/m 0 min 0 min 0 W/m 9,7 km/h (2 Bft) 100,00 %
12.08.2019 01:28 16,8 C 15,6 C 15,6 C 73 % 1014,9 hPa 0,0 l/m 0 min 0 min 0 W/m 6,4 km/h (2 Bft) 100,00 %
12.08.2019 01:30 16,8 C 15,6 C 15,6 C 73 % 1014,9 hPa 0,0 l/m 0 min 0 min 0 W/m 9,7 km/h (2 Bft) 100,00 %
12.08.2019 01:32 16,7 C 15,6 C 15,6 C 73 % 1014,9 hPa 0,0 l/m 0 min 0 min 0 W/m 9,7 km/h (2 Bft) 100,00 %
12.08.2019 01:34 16,7 C 15,6 C 15,6 C 73 % 1014,9 hPa 0,0 l/m 0 min 0 min 0 W/m 6,4 km/h (2 Bft) 98,00 %
12.08.2019 01:36 16,7 C 15,6 C 15,0 C 73 % 1014,9 hPa 0,0 l/m 0 min 0 min 0 W/m 6,4 km/h (2 Bft) 100,00 %
12.08.2019 01:38 16,7 C 15,6 C 15,0 C 73 % 1014,9 hPa 0,0 l/m 0 min 0 min 0 W/m 6,4 km/h (2 Bft) 100,00 %
12.08.2019 01:40 16,6 C 15,6 C 15,0 C 73 % 1014,9 hPa 0,0 l/m 0 min 0 min 0 W/m 9,7 km/h (2 Bft) 100,00 %
12.08.2019 01:42 16,6 C 15,6 C 15,0 C 73 % 1014,9 hPa 0,0 l/m 0 min 0 min 0 W/m 9,7 km/h (2 Bft) 100,00 %
12.08.2019 01:44 16,6 C 15,6 C 15,6 C 74 % 1014,9 hPa 0,0 l/m 0 min 0 min 0 W/m 6,4 km/h (2 Bft) 100,00 %
12.08.2019 01:46 16,6 C 15,6 C 15,0 C 74 % 1014,9 hPa 0,0 l/m 0 min 0 min 0 W/m 6,4 km/h (2 Bft) 97,96 %
12.08.2019 01:48 16,6 C 15,6 C 15,0 C 74 % 1014,9 hPa 0,0 l/m 0 min 0 min 0 W/m 6,4 km/h (2 Bft) 100,00 %
12.08.2019 01:50 16,5 C 15,6 C 15,0 C 74 % 1014,9 hPa 0,0 l/m 0 min 0 min 0 W/m 6,4 km/h (2 Bft) 100,00 %
12.08.2019 01:52 16,5 C 15,6 C 15,6 C 74 % 1014,9 hPa 0,0 l/m 0 min 0 min 0 W/m 12,9 km/h (3 Bft) 100,00 %
12.08.2019 01:54 16,5 C 15,6 C 15,0 C 74 % 1014,9 hPa 0,0 l/m 0 min 0 min 0 W/m 9,7 km/h (2 Bft) 100,00 %
12.08.2019 01:56 16,5 C 15,6 C 15,0 C 74 % 1014,9 hPa 0,0 l/m 0 min 0 min 0 W/m 12,9 km/h (3 Bft) 100,00 %
12.08.2019 01:58 16,4 C 15,6 C 15,0 C 74 % 1014,8 hPa 0,0 l/m 0 min 0 min 0 W/m 9,7 km/h (2 Bft) 100,00 %
12.08.2019 02:00 16,4 C 15,6 C 15,0 C 74 % 1014,9 hPa 0,0 l/m 0 min 0 min 0 W/m 16,1 km/h (3 Bft) 100,00 %
12.08.2019 02:02 16,4 C 15,6 C 15,0 C 75 % 1014,9 hPa 0,0 l/m 0 min 0 min 0 W/m 12,9 km/h (3 Bft) 100,00 %
12.08.2019 02:04 16,4 C 15,6 C 15,0 C 75 % 1014,8 hPa 0,0 l/m 0 min 0 min 0 W/m 6,4 km/h (2 Bft) 100,00 %
12.08.2019 02:06 16,4 C 15,6 C 15,0 C 75 % 1014,8 hPa 0,0 l/m 0 min 0 min 0 W/m 12,9 km/h (3 Bft) 100,00 %
12.08.2019 02:08 16,4 C 15,6 C 15,0 C 75 % 1014,8 hPa 0,0 l/m 0 min 0 min 0 W/m 12,9 km/h (3 Bft) 96,00 %
12.08.2019 02:10 16,4 C 15,6 C 15,0 C 75 % 1014,8 hPa 0,0 l/m 0 min 0 min 0 W/m 9,7 km/h (2 Bft) 100,00 %
12.08.2019 02:12 16,4 C 15,0 C 15,0 C 75 % 1014,9 hPa 0,0 l/m 0 min 0 min 0 W/m 9,7 km/h (2 Bft) 100,00 %
12.08.2019 02:14 16,3 C 15,0 C 15,0 C 75 % 1014,8 hPa 0,0 l/m 0 min 0 min 0 W/m 9,7 km/h (2 Bft) 100,00 %
12.08.2019 02:16 16,3 C 15,0 C 15,0 C 75 % 1014,8 hPa 0,0 l/m 0 min 0 min 0 W/m 9,7 km/h (2 Bft) 97,96 %
12.08.2019 02:18 16,3 C 15,0 C 15,0 C 75 % 1014,9 hPa 0,0 l/m 0 min 0 min 0 W/m 9,7 km/h (2 Bft) 100,00 %
12.08.2019 02:20 16,3 C 15,0 C 15,0 C 75 % 1014,9 hPa 0,0 l/m 0 min 0 min 0 W/m 9,7 km/h (2 Bft) 97,87 %
12.08.2019 02:22 16,3 C 15,0 C 15,0 C 75 % 1014,8 hPa 0,0 l/m 0 min 0 min 0 W/m 12,9 km/h (3 Bft) 98,15 %
12.08.2019 02:24 16,3 C 15,0 C 15,0 C 75 % 1014,8 hPa 0,0 l/m 0 min 0 min 0 W/m 12,9 km/h (3 Bft) 98,00 %
12.08.2019 02:26 16,3 C 15,0 C 15,0 C 75 % 1014,8 hPa 0,0 l/m 0 min 0 min 0 W/m 9,7 km/h (2 Bft) 100,00 %
12.08.2019 02:28 16,2 C 15,0 C 15,0 C 75 % 1014,8 hPa 0,0 l/m 0 min 0 min 0 W/m 9,7 km/h (2 Bft) 100,00 %
12.08.2019 02:30 16,2 C 15,0 C 15,0 C 75 % 1014,8 hPa 0,0 l/m 0 min 0 min 0 W/m 9,7 km/h (2 Bft) 98,11 %
12.08.2019 02:32 16,2 C 15,0 C 15,0 C 75 % 1014,8 hPa 0,0 l/m 0 min 0 min 0 W/m 9,7 km/h (2 Bft) 96,00 %
12.08.2019 02:34 16,2 C 15,0 C 15,0 C 76 % 1014,8 hPa 0,0 l/m 0 min 0 min 0 W/m 9,7 km/h (2 Bft) 97,96 %
12.08.2019 02:36 16,2 C 15,0 C 15,0 C 76 % 1014,8 hPa 0,0 l/m 0 min 0 min 0 W/m 12,9 km/h (3 Bft) 97,14 %
12.08.2019 02:38 16,2 C 15,0 C 15,0 C 76 % 1014,8 hPa 0,0 l/m 0 min 0 min 0 W/m 6,4 km/h (2 Bft) 92,45 %
12.08.2019 02:40 16,1 C 15,0 C 15,0 C 76 % 1014,8 hPa 0,0 l/m 0 min 0 min 0 W/m 9,7 km/h (2 Bft) 96,00 %
12.08.2019 02:42 16,1 C 15,0 C 15,0 C 76 % 1014,8 hPa 0,0 l/m 0 min 0 min 0 W/m 9,7 km/h (2 Bft) 93,88 %
12.08.2019 02:44 16,1 C 15,0 C 15,0 C 76 % 1014,8 hPa 0,0 l/m 0 min 0 min 0 W/m 9,7 km/h (2 Bft) 95,74 %
12.08.2019 02:46 16,1 C 15,0 C 14,4 C 76 % 1014,7 hPa 0,0 l/m 0 min 0 min 0 W/m 12,9 km/h (3 Bft) 91,43 %
12.08.2019 02:48 16,1 C 15,0 C 14,4 C 76 % 1014,7 hPa 0,0 l/m 0 min 0 min 0 W/m 9,7 km/h (2 Bft) 94,44 %
12.08.2019 02:50 16,1 C 15,0 C 14,4 C 76 % 1014,8 hPa 0,0 l/m 0 min 0 min 0 W/m 12,9 km/h (3 Bft) 93,88 %
12.08.2019 02:52 16,0 C 14,4 C 14,4 C 77 % 1014,8 hPa 0,0 l/m 0 min 0 min 0 W/m 6,4 km/h (2 Bft) 93,88 %
12.08.2019 02:54 16,0 C 14,4 C 14,4 C 76 % 1014,8 hPa 0,0 l/m 0 min 0 min 0 W/m 9,7 km/h (2 Bft) 94,29 %
12.08.2019 02:56 15,9 C 14,4 C 14,4 C 77 % 1014,8 hPa 0,0 l/m 0 min 0 min 0 W/m 6,4 km/h (2 Bft) 96,30 %
12.08.2019 02:58 15,9 C 14,4 C 14,4 C 77 % 1014,8 hPa 0,0 l/m 0 min 0 min 0 W/m 9,7 km/h (2 Bft) 94,00 %
12.08.2019 03:00 15,9 C 14,4 C 14,4 C 77 % 1014,8 hPa 0,0 l/m 0 min 0 min 0 W/m 12,9 km/h (3 Bft) 95,92 %
12.08.2019 03:02 15,9 C 14,4 C 14,4 C 77 % 1014,8 hPa 0,0 l/m 0 min 0 min 0 W/m 9,7 km/h (2 Bft) 97,14 %
12.08.2019 03:04 15,8 C 14,4 C 14,4 C 77 % 1014,8 hPa 0,0 l/m 0 min 0 min 0 W/m 12,9 km/h (3 Bft) 94,34 %
12.08.2019 03:06 15,8 C 14,4 C 14,4 C 77 % 1014,8 hPa 0,0 l/m 0 min 0 min 0 W/m 9,7 km/h (2 Bft) 90,00 %
12.08.2019 03:08 15,8 C 14,4 C 14,4 C 77 % 1014,8 hPa 0,0 l/m 0 min 0 min 0 W/m 6,4 km/h (2 Bft) 91,84 %
12.08.2019 03:10 15,8 C 14,4 C 14,4 C 77 % 1014,8 hPa 0,0 l/m 0 min 0 min 0 W/m 9,7 km/h (2 Bft) 94,29 %
12.08.2019 03:12 15,7 C 14,4 C 14,4 C 78 % 1014,8 hPa 0,0 l/m 0 min 0 min 0 W/m 9,7 km/h (2 Bft) 96,23 %
12.08.2019 03:14 15,7 C 14,4 C 14,4 C 78 % 1014,7 hPa 0,0 l/m 0 min 0 min 0 W/m 9,7 km/h (2 Bft) 94,00 %
12.08.2019 03:16 15,7 C 14,4 C 14,4 C 78 % 1014,7 hPa 0,0 l/m 0 min 0 min 0 W/m 9,7 km/h (2 Bft) 95,92 %
12.08.2019 03:18 15,7 C 14,4 C 13,9 C 78 % 1014,8 hPa 0,0 l/m 0 min 0 min 0 W/m 12,9 km/h (3 Bft) 93,75 %
12.08.2019 03:20 15,6 C 14,4 C 13,9 C 78 % 1014,7 hPa 0,0 l/m 0 min 0 min 0 W/m 9,7 km/h (2 Bft) 91,43 %
12.08.2019 03:22 15,6 C 14,4 C 14,4 C 78 % 1014,8 hPa 0,0 l/m 0 min 0 min 0 W/m 6,4 km/h (2 Bft) 95,74 %
12.08.2019 03:24 15,6 C 14,4 C 14,4 C 78 % 1014,8 hPa 0,0 l/m 0 min 0 min 0 W/m 12,9 km/h (3 Bft) 93,75 %
12.08.2019 03:26 15,5 C 14,4 C 14,4 C 78 % 1014,8 hPa 0,0 l/m 0 min 0 min 0 W/m 9,7 km/h (2 Bft) 98,15 %
12.08.2019 03:28 15,5 C 14,4 C 14,4 C 78 % 1014,8 hPa 0,0 l/m 0 min 0 min 0 W/m 9,7 km/h (2 Bft) 92,00 %
12.08.2019 03:30 15,5 C 14,4 C 14,4 C 78 % 1014,7 hPa 0,0 l/m 0 min 0 min 0 W/m 9,7 km/h (2 Bft) 91,89 %
12.08.2019 03:32 15,4 C 14,4 C 13,9 C 79 % 1014,7 hPa 0,0 l/m 0 min 0 min 0 W/m 9,7 km/h (2 Bft) 95,74 %
12.08.2019 03:34 15,4 C 14,4 C 13,9 C 79 % 1014,7 hPa 0,0 l/m 0 min 0 min 0 W/m 9,7 km/h (2 Bft) 93,75 %
12.08.2019 03:36 15,4 C 14,4 C 13,9 C 79 % 1014,6 hPa 0,0 l/m 0 min 0 min 0 W/m 9,7 km/h (2 Bft) 95,74 %
12.08.2019 03:38 15,4 C 14,4 C 13,9 C 79 % 1014,7 hPa 0,0 l/m 0 min 0 min 0 W/m 12,9 km/h (3 Bft) 96,36 %
12.08.2019 03:40 15,4 C 14,4 C 13,9 C 79 % 1014,7 hPa 0,0 l/m 0 min 0 min 0 W/m 12,9 km/h (3 Bft) 97,37 %
12.08.2019 03:42 15,3 C 14,4 C 13,9 C 79 % 1014,7 hPa 0,0 l/m 0 min 0 min 0 W/m 9,7 km/h (2 Bft) 97,92 %
12.08.2019 03:44 15,3 C 14,4 C 13,9 C 79 % 1014,7 hPa 0,0 l/m 0 min 0 min 0 W/m 12,9 km/h (3 Bft) 97,92 %
12.08.2019 03:46 15,3 C 14,4 C 13,9 C 79 % 1014,7 hPa 0,0 l/m 0 min 0 min 0 W/m 9,7 km/h (2 Bft) 98,11 %
12.08.2019 03:48 15,3 C 14,4 C 13,9 C 79 % 1014,7 hPa 0,0 l/m 0 min 0 min 0 W/m 6,4 km/h (2 Bft) 95,74 %
12.08.2019 03:50 15,3 C 14,4 C 13,9 C 79 % 1014,8 hPa 0,0 l/m 0 min 0 min 0 W/m 9,7 km/h (2 Bft) 97,87 %
12.08.2019 03:52 15,3 C 14,4 C 13,9 C 79 % 1014,8 hPa 0,0 l/m 0 min 0 min 0 W/m 9,7 km/h (2 Bft) 95,74 %
12.08.2019 03:54 15,3 C 13,9 C 13,9 C 79 % 1014,8 hPa 0,0 l/m 0 min 0 min 0 W/m 12,9 km/h (3 Bft) 97,56 %
12.08.2019 03:56 15,2 C 13,9 C 13,9 C 79 % 1014,8 hPa 0,0 l/m 0 min 0 min 0 W/m 6,4 km/h (2 Bft) 97,87 %
12.08.2019 03:58 15,2 C 13,9 C 13,9 C 79 % 1014,7 hPa 0,0 l/m 0 min 0 min 0 W/m 6,4 km/h (2 Bft) 100,00 %
12.08.2019 04:00 15,2 C 13,9 C 13,9 C 80 % 1014,7 hPa 0,0 l/m 0 min 0 min 0 W/m 6,4 km/h (2 Bft) 100,00 %
12.08.2019 04:05 15,2 C 13,9 C 13,9 C 80 % 1014,8 hPa 0,0 l/m 0 min 0 min 0 W/m 9,7 km/h (2 Bft) 98,28 %
12.08.2019 04:06 15,2 C 13,9 C 13,9 C 80 % 1014,8 hPa 0,0 l/m 0 min 0 min 0 W/m 6,4 km/h (2 Bft) 100,00 %
12.08.2019 04:08 15,2 C 13,9 C 13,9 C 80 % 1014,8 hPa 0,0 l/m 0 min 0 min 0 W/m 6,4 km/h (2 Bft) 100,00 %
12.08.2019 04:10 15,1 C 13,9 C 13,9 C 80 % 1014,8 hPa 0,0 l/m 0 min 0 min 0 W/m 6,4 km/h (2 Bft) 100,00 %
12.08.2019 04:12 15,1 C 13,9 C 13,9 C 80 % 1014,8 hPa 0,0 l/m 0 min 0 min 0 W/m 9,7 km/h (2 Bft) 97,83 %
12.08.2019 04:14 15,1 C 13,9 C 13,9 C 80 % 1014,8 hPa 0,0 l/m 0 min 0 min 0 W/m 9,7 km/h (2 Bft) 100,00 %
12.08.2019 04:16 15,1 C 13,9 C 13,9 C 80 % 1014,8 hPa 0,0 l/m 0 min 0 min 0 W/m 6,4 km/h (2 Bft) 100,00 %
12.08.2019 04:18 15,1 C 13,9 C 13,9 C 80 % 1014,8 hPa 0,0 l/m 0 min 0 min 0 W/m 12,9 km/h (3 Bft) 100,00 %
12.08.2019 04:20 15,0 C 13,9 C 13,9 C 80 % 1014,8 hPa 0,0 l/m 0 min 0 min 0 W/m 9,7 km/h (2 Bft) 100,00 %
12.08.2019 04:22 15,0 C 13,9 C 13,9 C 81 % 1014,8 hPa 0,0 l/m 0 min 0 min 0 W/m 9,7 km/h (2 Bft) 100,00 %
12.08.2019 04:24 15,0 C 13,9 C 13,3 C 81 % 1014,8 hPa 0,0 l/m 0 min 0 min 0 W/m 6,4 km/h (2 Bft) 100,00 %
12.08.2019 04:26 14,9 C 13,9 C 13,3 C 81 % 1014,8 hPa 0,0 l/m 0 min 0 min 0 W/m 6,4 km/h (2 Bft) 100,00 %
12.08.2019 04:28 14,9 C 13,9 C 13,3 C 81 % 1014,9 hPa 0,0 l/m 0 min 0 min 0 W/m 12,9 km/h (3 Bft) 100,00 %
12.08.2019 04:30 14,9 C 13,9 C 13,3 C 81 % 1014,9 hPa 0,0 l/m 0 min 0 min 0 W/m 9,7 km/h (2 Bft) 100,00 %
12.08.2019 04:32 14,9 C 13,9 C 13,3 C 81 % 1015,0 hPa 0,0 l/m 0 min 0 min 0 W/m 9,7 km/h (2 Bft) 100,00 %
12.08.2019 04:34 14,9 C 13,9 C 13,3 C 81 % 1014,9 hPa 0,0 l/m 0 min 0 min 0 W/m 9,7 km/h (2 Bft) 100,00 %
12.08.2019 04:36 14,8 C 13,9 C 13,3 C 81 % 1014,9 hPa 0,0 l/m 0 min 0 min 0 W/m 6,4 km/h (2 Bft) 100,00 %
12.08.2019 04:38 14,8 C 13,9 C 13,3 C 82 % 1014,9 hPa 0,0 l/m 0 min 0 min 0 W/m 6,4 km/h (2 Bft) 100,00 %
12.08.2019 04:40 14,8 C 13,9 C 13,3 C 82 % 1015,0 hPa 0,0 l/m 0 min 0 min 0 W/m 12,9 km/h (3 Bft) 100,00 %
12.08.2019 04:42 14,8 C 13,9 C 13,3 C 82 % 1015,0 hPa 0,0 l/m 0 min 0 min 0 W/m 12,9 km/h (3 Bft) 100,00 %
12.08.2019 04:44 14,8 C 13,9 C 13,3 C 82 % 1015,1 hPa 0,0 l/m 0 min 0 min 0 W/m 9,7 km/h (2 Bft) 100,00 %
12.08.2019 04:46 14,8 C 13,9 C 13,3 C 82 % 1014,9 hPa 0,0 l/m 0 min 0 min 0 W/m 9,7 km/h (2 Bft) 100,00 %
12.08.2019 04:48 14,7 C 13,9 C 13,3 C 82 % 1014,9 hPa 0,0 l/m 0 min 0 min 0 W/m 9,7 km/h (2 Bft) 100,00 %
12.08.2019 04:50 14,7 C 13,9 C 13,3 C 82 % 1014,9 hPa 0,0 l/m 0 min 0 min 0 W/m 9,7 km/h (2 Bft) 100,00 %
12.08.2019 04:52 14,7 C 13,9 C 13,3 C 82 % 1015,0 hPa 0,0 l/m 0 min 0 min 0 W/m 12,9 km/h (3 Bft) 100,00 %
12.08.2019 04:54 14,7 C 13,9 C 13,9 C 82 % 1015,0 hPa 0,0 l/m 0 min 0 min 0 W/m 12,9 km/h (3 Bft) 100,00 %
12.08.2019 04:56 14,7 C 13,9 C 13,3 C 82 % 1014,9 hPa 0,0 l/m 0 min 0 min 0 W/m 16,1 km/h (3 Bft) 97,87 %
12.08.2019 04:58 14,7 C 13,9 C 13,9 C 82 % 1015,0 hPa 0,0 l/m 0 min 0 min 0 W/m 12,9 km/h (3 Bft) 97,83 %
12.08.2019 05:00 14,7 C 13,9 C 13,3 C 83 % 1014,9 hPa 0,0 l/m 0 min 0 min 0 W/m 6,4 km/h (2 Bft) 97,87 %
12.08.2019 05:02 14,7 C 13,9 C 13,9 C 83 % 1014,8 hPa 0,0 l/m 0 min 0 min 0 W/m 9,7 km/h (2 Bft) 100,00 %
12.08.2019 05:04 14,7 C 13,9 C 13,3 C 83 % 1014,9 hPa 0,0 l/m 0 min 0 min 0 W/m 6,4 km/h (2 Bft) 97,87 %
12.08.2019 05:06 14,6 C 13,9 C 13,9 C 83 % 1014,8 hPa 0,0 l/m 0 min 0 min 0 W/m 9,7 km/h (2 Bft) 97,87 %
12.08.2019 05:08 14,6 C 13,9 C 13,9 C 83 % 1014,8 hPa 0,0 l/m 0 min 0 min 0 W/m 9,7 km/h (2 Bft) 95,74 %
12.08.2019 05:10 14,6 C 13,9 C 13,3 C 83 % 1014,8 hPa 0,0 l/m 0 min 0 min 0 W/m 9,7 km/h (2 Bft) 97,83 %
12.08.2019 05:12 14,6 C 13,9 C 13,3 C 83 % 1014,9 hPa 0,0 l/m 0 min 0 min 0 W/m 9,7 km/h (2 Bft) 100,00 %
12.08.2019 05:14 14,6 C 13,9 C 13,9 C 83 % 1015,0 hPa 0,0 l/m 0 min 0 min 0 W/m 6,4 km/h (2 Bft) 97,87 %
12.08.2019 05:16 14,6 C 13,9 C 13,9 C 83 % 1014,9 hPa 0,0 l/m 0 min 0 min 0 W/m 3,2 km/h (1 Bft) 97,87 %
12.08.2019 05:18 14,6 C 13,9 C 13,9 C 83 % 1014,9 hPa 0,0 l/m 0 min 0 min 0 W/m 3,2 km/h (1 Bft) 97,87 %
12.08.2019 05:20 14,6 C 13,3 C 13,3 C 83 % 1014,9 hPa 0,0 l/m 0 min 0 min 0 W/m 3,2 km/h (1 Bft) 95,74 %
12.08.2019 05:22 14,6 C 13,3 C 13,3 C 83 % 1014,9 hPa 0,0 l/m 0 min 0 min 0 W/m 6,4 km/h (2 Bft) 95,65 %
12.08.2019 05:24 14,6 C 13,3 C 13,3 C 83 % 1014,9 hPa 0,0 l/m 0 min 0 min 0 W/m 3,2 km/h (1 Bft) 95,74 %
12.08.2019 05:26 14,6 C 13,3 C 13,3 C 83 % 1014,9 hPa 0,0 l/m 0 min 0 min 0 W/m 3,2 km/h (1 Bft) 97,87 %
12.08.2019 05:28 14,6 C 13,3 C 13,3 C 83 % 1014,9 hPa 0,0 l/m 0 min 0 min 0 W/m 3,2 km/h (1 Bft) 97,87 %
12.08.2019 05:30 14,6 C 13,3 C 13,3 C 83 % 1014,8 hPa 0,0 l/m 0 min 0 min 0 W/m 6,4 km/h (2 Bft) 97,87 %
12.08.2019 05:32 14,6 C 13,3 C 13,3 C 83 % 1014,8 hPa 0,0 l/m 0 min 0 min 0 W/m 3,2 km/h (1 Bft) 97,83 %
12.08.2019 05:34 14,6 C 13,3 C 13,3 C 83 % 1014,9 hPa 0,0 l/m 0 min 0 min 0 W/m 9,7 km/h (2 Bft) 97,87 %
12.08.2019 05:36 14,5 C 13,3 C 13,3 C 83 % 1014,9 hPa 0,0 l/m 0 min 0 min 0 W/m 6,4 km/h (2 Bft) 97,87 %
12.08.2019 05:38 14,5 C 13,3 C 13,3 C 83 % 1014,9 hPa 0,0 l/m 0 min 0 min 0 W/m 6,4 km/h (2 Bft) 98,00 %
12.08.2019 05:40 14,5 C 13,3 C 13,3 C 83 % 1014,9 hPa 0,0 l/m 0 min 0 min 0 W/m 6,4 km/h (2 Bft) 97,87 %
12.08.2019 05:42 14,5 C 13,3 C 13,3 C 83 % 1014,8 hPa 0,0 l/m 0 min 0 min 0 W/m 6,4 km/h (2 Bft) 97,87 %
12.08.2019 05:44 14,5 C 13,3 C 13,3 C 83 % 1014,8 hPa 0,0 l/m 0 min 0 min 0 W/m 9,7 km/h (2 Bft) 97,83 %
12.08.2019 05:46 14,4 C 13,3 C 13,3 C 83 % 1014,9 hPa 0,0 l/m 0 min 0 min 0 W/m 6,4 km/h (2 Bft) 97,87 %
12.08.2019 05:48 14,4 C 13,3 C 13,3 C 83 % 1014,9 hPa 0,0 l/m 0 min 0 min 0 W/m 9,7 km/h (2 Bft) 97,87 %
12.08.2019 05:50 14,4 C 13,3 C 13,3 C 83 % 1014,8 hPa 0,0 l/m 0 min 0 min 0 W/m 6,4 km/h (2 Bft) 100,00 %
12.08.2019 05:52 14,4 C 13,3 C 12,8 C 83 % 1015,0 hPa 0,0 l/m 0 min 0 min 0 W/m 6,4 km/h (2 Bft) 95,74 %
12.08.2019 05:54 14,4 C 13,3 C 12,8 C 83 % 1015,0 hPa 0,0 l/m 0 min 0 min 0 W/m 6,4 km/h (2 Bft) 97,87 %
12.08.2019 05:56 14,4 C 13,3 C 12,8 C 83 % 1015,0 hPa 0,0 l/m 0 min 0 min 0 W/m 6,4 km/h (2 Bft) 97,83 %
12.08.2019 05:58 14,3 C 13,3 C 12,8 C 83 % 1015,0 hPa 0,0 l/m 0 min 0 min 0 W/m 6,4 km/h (2 Bft) 95,74 %
12.08.2019 06:00 14,3 C 13,3 C 12,8 C 83 % 1014,9 hPa 0,0 l/m 0 min 0 min 0 W/m 6,4 km/h (2 Bft) 97,87 %
12.08.2019 06:02 14,3 C 13,3 C 12,8 C 84 % 1015,0 hPa 0,0 l/m 0 min 0 min 0 W/m 6,4 km/h (2 Bft) 97,87 %
12.08.2019 06:04 14,3 C 13,3 C 12,8 C 84 % 1015,1 hPa 0,0 l/m 0 min 0 min 0 W/m 3,2 km/h (1 Bft) 100,00 %
12.08.2019 06:08 14,2 C 13,3 C 12,8 C 84 % 1015,1 hPa 0,0 l/m 0 min 0 min 0 W/m 6,4 km/h (2 Bft) 96,77 %
12.08.2019 06:10 14,2 C 13,3 C 12,8 C 84 % 1015,0 hPa 0,0 l/m 0 min 0 min 0 W/m 9,7 km/h (2 Bft) 97,87 %
12.08.2019 06:12 14,2 C 13,3 C 12,8 C 84 % 1015,0 hPa 0,0 l/m 0 min 0 min 0 W/m 9,7 km/h (2 Bft) 97,87 %
12.08.2019 06:14 14,2 C 13,3 C 12,8 C 84 % 1015,1 hPa 0,0 l/m 0 min 0 min 0 W/m 6,4 km/h (2 Bft) 97,87 %
12.08.2019 06:16 14,2 C 13,3 C 12,8 C 84 % 1015,1 hPa 0,0 l/m 0 min 0 min 0 W/m 9,7 km/h (2 Bft) 97,87 %
12.08.2019 06:18 14,2 C 13,3 C 12,8 C 84 % 1015,2 hPa 0,0 l/m 0 min 0 min 0 W/m 9,7 km/h (2 Bft) 97,87 %
12.08.2019 06:20 14,2 C 13,3 C 12,8 C 84 % 1015,2 hPa 0,0 l/m 0 min 0 min 0 W/m 9,7 km/h (2 Bft) 97,83 %
12.08.2019 06:22 14,2 C 13,3 C 12,8 C 84 % 1015,1 hPa 0,0 l/m 0 min 0 min 2 W/m 6,4 km/h (2 Bft) 97,87 %
12.08.2019 06:24 14,2 C 13,3 C 12,8 C 84 % 1015,1 hPa 0,0 l/m 0 min 0 min 5 W/m 6,4 km/h (2 Bft) 97,87 %
12.08.2019 06:26 14,2 C 13,3 C 12,8 C 85 % 1015,2 hPa 0,0 l/m 0 min 0 min 5 W/m 6,4 km/h (2 Bft) 95,74 %
12.08.2019 06:28 14,2 C 13,3 C 12,8 C 85 % 1015,2 hPa 0,0 l/m 0 min 0 min 5 W/m 6,4 km/h (2 Bft) 93,62 %
12.08.2019 06:30 14,2 C 13,3 C 12,8 C 85 % 1015,2 hPa 0,0 l/m 0 min 0 min 7 W/m 6,4 km/h (2 Bft) 95,65 %
12.08.2019 06:32 14,2 C 13,3 C 12,8 C 85 % 1015,2 hPa 0,0 l/m 0 min 0 min 7 W/m 3,2 km/h (1 Bft) 95,74 %
12.08.2019 06:34 14,2 C 13,3 C 12,8 C 85 % 1015,2 hPa 0,0 l/m 0 min 0 min 7 W/m 6,4 km/h (2 Bft) 97,83 %
12.08.2019 06:36 14,2 C 13,3 C 12,8 C 85 % 1015,2 hPa 0,0 l/m 0 min 0 min 9 W/m 6,4 km/h (2 Bft) 91,49 %
12.08.2019 06:38 14,2 C 13,3 C 12,8 C 85 % 1015,2 hPa 0,0 l/m 0 min 0 min 10 W/m 6,4 km/h (2 Bft) 95,74 %
12.08.2019 06:40 14,1 C 13,3 C 12,8 C 85 % 1015,2 hPa 0,0 l/m 0 min 0 min 11 W/m 6,4 km/h (2 Bft) 93,62 %
12.08.2019 06:42 14,1 C 13,3 C 12,8 C 85 % 1015,2 hPa 0,0 l/m 0 min 0 min 12 W/m 6,4 km/h (2 Bft) 95,65 %
12.08.2019 06:44 14,1 C 13,3 C 12,8 C 85 % 1015,2 hPa 0,0 l/m 0 min 0 min 12 W/m 9,7 km/h (2 Bft) 93,62 %
12.08.2019 06:46 14,1 C 13,3 C 12,8 C 85 % 1015,3 hPa 0,0 l/m 0 min 0 min 13 W/m 6,4 km/h (2 Bft) 95,74 %
12.08.2019 06:48 14,1 C 13,3 C 12,8 C 85 % 1015,3 hPa 0,0 l/m 0 min 0 min 14 W/m 6,4 km/h (2 Bft) 95,74 %
12.08.2019 06:50 14,1 C 13,3 C 12,8 C 85 % 1015,3 hPa 0,0 l/m 0 min 0 min 15 W/m 9,7 km/h (2 Bft) 95,74 %
12.08.2019 06:52 14,1 C 13,3 C 12,8 C 85 % 1015,3 hPa 0,0 l/m 0 min 0 min 16 W/m 9,7 km/h (2 Bft) 95,74 %
12.08.2019 06:54 14,1 C 13,3 C 12,8 C 85 % 1015,3 hPa 0,0 l/m 0 min 0 min 17 W/m 9,7 km/h (2 Bft) 95,65 %
12.08.2019 06:56 14,0 C 13,3 C 12,8 C 86 % 1015,3 hPa 0,0 l/m 0 min 0 min 18 W/m 9,7 km/h (2 Bft) 95,74 %
12.08.2019 06:58 14,0 C 13,3 C 12,8 C 86 % 1015,3 hPa 0,0 l/m 0 min 0 min 19 W/m 12,9 km/h (3 Bft) 97,87 %
12.08.2019 07:00 14,0 C 13,3 C 13,3 C 86 % 1015,3 hPa 0,0 l/m 0 min 0 min 19 W/m 12,9 km/h (3 Bft) 95,74 %
12.08.2019 07:02 14,0 C 13,3 C 13,3 C 86 % 1015,3 hPa 0,0 l/m 0 min 0 min 20 W/m 6,4 km/h (2 Bft) 97,87 %
12.08.2019 07:04 14,0 C 13,3 C 13,3 C 86 % 1015,3 hPa 0,0 l/m 0 min 0 min 21 W/m 9,7 km/h (2 Bft) 97,87 %
12.08.2019 07:06 14,0 C 13,3 C 13,3 C 86 % 1015,3 hPa 0,0 l/m 0 min 0 min 21 W/m 9,7 km/h (2 Bft) 97,83 %
12.08.2019 07:08 14,0 C 13,3 C 13,3 C 86 % 1015,4 hPa 0,0 l/m 0 min 0 min 23 W/m 6,4 km/h (2 Bft) 95,74 %
12.08.2019 07:10 14,0 C 13,3 C 13,3 C 86 % 1015,4 hPa 0,0 l/m 0 min 0 min 23 W/m 6,4 km/h (2 Bft) 97,87 %
12.08.2019 07:12 14,0 C 13,9 C 13,3 C 86 % 1015,5 hPa 0,0 l/m 0 min 0 min 25 W/m 9,7 km/h (2 Bft) 97,87 %
12.08.2019 07:14 14,0 C 13,9 C 13,3 C 86 % 1015,5 hPa 0,0 l/m 0 min 0 min 26 W/m 6,4 km/h (2 Bft) 97,87 %
12.08.2019 07:16 14,1 C 13,9 C 13,3 C 86 % 1015,4 hPa 0,0 l/m 0 min 0 min 28 W/m 6,4 km/h (2 Bft) 95,74 %
12.08.2019 07:18 14,1 C 13,9 C 13,3 C 86 % 1015,5 hPa 0,0 l/m 0 min 0 min 28 W/m 3,2 km/h (1 Bft) 25,00 %
12.08.2019 07:20 14,1 C 13,9 C 13,3 C 86 % 1015,4 hPa 0,0 l/m 0 min 0 min 28 W/m 3,2 km/h (1 Bft) 93,33 %
12.08.2019 07:22 14,1 C 13,9 C 13,3 C 86 % 1015,4 hPa 0,0 l/m 0 min 0 min 28 W/m 12,9 km/h (3 Bft) 97,87 %
12.08.2019 07:24 14,2 C 13,9 C 13,3 C 86 % 1015,3 hPa 0,0 l/m 0 min 0 min 30 W/m 6,4 km/h (2 Bft) 97,87 %
12.08.2019 07:26 14,2 C 13,9 C 13,3 C 86 % 1015,3 hPa 0,0 l/m 0 min 0 min 30 W/m 6,4 km/h (2 Bft) 97,87 %
12.08.2019 07:28 14,2 C 13,9 C 13,9 C 86 % 1015,3 hPa 0,0 l/m 0 min 0 min 31 W/m 9,7 km/h (2 Bft) 100,00 %
12.08.2019 07:30 14,2 C 13,9 C 13,9 C 87 % 1015,2 hPa 0,0 l/m 0 min 0 min 32 W/m 9,7 km/h (2 Bft) 100,00 %
12.08.2019 07:32 14,2 C 14,4 C 13,9 C 87 % 1015,3 hPa 0,0 l/m 0 min 0 min 33 W/m 6,4 km/h (2 Bft) 100,00 %
12.08.2019 07:34 14,2 C 14,4 C 13,9 C 87 % 1015,3 hPa 0,0 l/m 0 min 0 min 37 W/m 6,4 km/h (2 Bft) 95,74 %
12.08.2019 07:36 14,2 C 14,4 C 13,9 C 87 % 1015,4 hPa 0,0 l/m 0 min 0 min 40 W/m 9,7 km/h (2 Bft) 100,00 %
12.08.2019 07:38 14,2 C 14,4 C 13,9 C 87 % 1015,4 hPa 0,0 l/m 0 min 0 min 49 W/m 9,7 km/h (2 Bft) 97,87 %
12.08.2019 07:40 14,2 C 15,0 C 13,9 C 87 % 1015,3 hPa 0,0 l/m 0 min 0 min 64 W/m 9,7 km/h (2 Bft) 97,83 %
12.08.2019 07:42 14,2 C 15,0 C 14,4 C 87 % 1015,4 hPa 0,0 l/m 0 min 0 min 64 W/m 9,7 km/h (2 Bft) 100,00 %
12.08.2019 07:44 14,3 C 15,0 C 14,4 C 87 % 1015,3 hPa 0,0 l/m 0 min 0 min 53 W/m 9,7 km/h (2 Bft) 97,87 %
12.08.2019 07:46 14,3 C 15,0 C 14,4 C 87 % 1015,4 hPa 0,0 l/m 0 min 0 min 46 W/m 6,4 km/h (2 Bft) 95,74 %
12.08.2019 07:48 14,4 C 15,0 C 14,4 C 87 % 1015,3 hPa 0,0 l/m 0 min 0 min 40 W/m 9,7 km/h (2 Bft) 100,00 %
12.08.2019 07:50 14,4 C 15,0 C 14,4 C 87 % 1015,3 hPa 0,0 l/m 0 min 0 min 41 W/m 9,7 km/h (2 Bft) 100,00 %
12.08.2019 07:52 14,5 C 15,0 C 14,4 C 87 % 1015,2 hPa 0,0 l/m 0 min 0 min 48 W/m 6,4 km/h (2 Bft) 97,83 %
12.08.2019 07:54 14,5 C 15,0 C 14,4 C 87 % 1015,3 hPa 0,0 l/m 0 min 0 min 61 W/m 6,4 km/h (2 Bft) 97,87 %
12.08.2019 07:56 14,6 C 15,6 C 15,0 C 87 % 1015,3 hPa 0,0 l/m 0 min 0 min 84 W/m 9,7 km/h (2 Bft) 97,87 %
12.08.2019 07:58 14,7 C 15,6 C 15,0 C 87 % 1015,4 hPa 0,0 l/m 0 min 0 min 103 W/m 9,7 km/h (2 Bft) 100,00 %
12.08.2019 08:00 14,7 C 16,1 C 15,0 C 87 % 1015,4 hPa 0,0 l/m 0 min 0 min 105 W/m 9,7 km/h (2 Bft) 97,87 %
12.08.2019 08:02 14,8 C 16,1 C 15,6 C 87 % 1015,3 hPa 0,0 l/m 0 min 0 min 102 W/m 9,7 km/h (2 Bft) 97,87 %
12.08.2019 08:04 14,8 C 16,1 C 15,6 C 86 % 1015,3 hPa 0,0 l/m 0 min 0 min 100 W/m 9,7 km/h (2 Bft) 97,83 %
12.08.2019 08:06 14,9 C 16,1 C 15,6 C 86 % 1015,3 hPa 0,0 l/m 0 min 0 min 96 W/m 12,9 km/h (3 Bft) 97,87 %
12.08.2019 08:08 14,9 C 16,1 C 15,6 C 86 % 1015,3 hPa 0,0 l/m 0 min 0 min 89 W/m 9,7 km/h (2 Bft) 95,74 %
12.08.2019 08:10 15,1 C 16,1 C 15,6 C 86 % 1015,3 hPa 0,0 l/m 0 min 0 min 82 W/m 9,7 km/h (2 Bft) 97,92 %
12.08.2019 08:12 15,2 C 16,1 C 15,6 C 86 % 1015,3 hPa 0,0 l/m 0 min 0 min 75 W/m 12,9 km/h (3 Bft) 97,87 %
12.08.2019 08:14 15,2 C 16,1 C 15,6 C 86 % 1015,3 hPa 0,0 l/m 0 min 0 min 66 W/m 9,7 km/h (2 Bft) 97,87 %
12.08.2019 08:16 15,3 C 16,1 C 15,6 C 86 % 1015,3 hPa 0,0 l/m 0 min 0 min 72 W/m 12,9 km/h (3 Bft) 97,87 %
12.08.2019 08:18 15,4 C 16,7 C 15,6 C 86 % 1015,3 hPa 0,0 l/m 0 min 0 min 85 W/m 12,9 km/h (3 Bft) 97,83 %
12.08.2019 08:20 15,4 C 16,7 C 16,1 C 85 % 1015,3 hPa 0,0 l/m 0 min 0 min 93 W/m 12,9 km/h (3 Bft) 97,87 %
12.08.2019 08:22 15,5 C 16,7 C 16,1 C 85 % 1015,4 hPa 0,0 l/m 0 min 0 min 92 W/m 12,9 km/h (3 Bft) 97,87 %
12.08.2019 08:24 15,6 C 17,2 C 16,1 C 85 % 1015,3 hPa 0,0 l/m 0 min 0 min 89 W/m 9,7 km/h (2 Bft) 97,87 %
12.08.2019 08:26 15,7 C 17,2 C 16,1 C 85 % 1015,4 hPa 0,0 l/m 0 min 0 min 85 W/m 12,9 km/h (3 Bft) 97,87 %
12.08.2019 08:28 15,8 C 16,7 C 16,1 C 85 % 1015,4 hPa 0,0 l/m 0 min 0 min 78 W/m 9,7 km/h (2 Bft) 97,83 %
12.08.2019 08:30 15,8 C 16,7 C 16,1 C 84 % 1015,4 hPa 0,0 l/m 0 min 0 min 70 W/m 9,7 km/h (2 Bft) 97,87 %
12.08.2019 08:32 15,9 C 17,2 C 16,1 C 84 % 1015,4 hPa 0,0 l/m 0 min 0 min 79 W/m 12,9 km/h (3 Bft) 95,74 %
12.08.2019 08:34 16,0 C 16,7 C 16,1 C 84 % 1015,3 hPa 0,0 l/m 0 min 0 min 80 W/m 9,7 km/h (2 Bft) 95,74 %
12.08.2019 08:36 16,1 C 16,7 C 16,1 C 84 % 1015,3 hPa 0,0 l/m 0 min 0 min 79 W/m 12,9 km/h (3 Bft) 97,87 %
12.08.2019 08:38 16,2 C 16,7 C 16,1 C 83 % 1015,3 hPa 0,0 l/m 0 min 0 min 78 W/m 16,1 km/h (3 Bft) 95,74 %
12.08.2019 08:40 16,3 C 18,3 C 16,1 C 83 % 1015,3 hPa 0,0 l/m 2 min 0 min 180 W/m 16,1 km/h (3 Bft) 93,48 %
12.08.2019 08:42 16,3 C 19,4 C 16,1 C 83 % 1015,3 hPa 0,0 l/m 2 min 0 min 227 W/m 12,9 km/h (3 Bft) 97,87 %
12.08.2019 08:44 16,4 C 20,0 C 16,1 C 83 % 1015,3 hPa 0,0 l/m 2 min 0 min 249 W/m 16,1 km/h (3 Bft) 91,49 %
12.08.2019 08:46 16,5 C 20,0 C 16,1 C 82 % 1015,4 hPa 0,0 l/m 2 min 0 min 278 W/m 9,7 km/h (2 Bft) 95,74 %
12.08.2019 08:48 16,6 C 20,0 C 16,1 C 82 % 1015,4 hPa 0,0 l/m 2 min 0 min 300 W/m 9,7 km/h (2 Bft) 93,62 %
12.08.2019 08:50 16,7 C 20,6 C 16,7 C 82 % 1015,4 hPa 0,0 l/m 2 min 0 min 327 W/m 3,2 km/h (1 Bft) 95,74 %
12.08.2019 08:52 16,8 C 21,1 C 16,7 C 81 % 1015,4 hPa 0,0 l/m 2 min 0 min 352 W/m 16,1 km/h (3 Bft) 97,83 %
12.08.2019 08:54 16,9 C 21,7 C 16,7 C 81 % 1015,4 hPa 0,0 l/m 2 min 0 min 368 W/m 12,9 km/h (3 Bft) 95,74 %
12.08.2019 08:56 17,1 C 22,2 C 17,2 C 81 % 1015,4 hPa 0,0 l/m 2 min 0 min 376 W/m 9,7 km/h (2 Bft) 97,87 %
12.08.2019 08:58 17,2 C 21,1 C 17,2 C 81 % 1015,4 hPa 0,0 l/m 2 min 0 min 375 W/m 9,7 km/h (2 Bft) 97,87 %
12.08.2019 09:00 17,3 C 20,0 C 17,2 C 80 % 1015,4 hPa 0,0 l/m 2 min 0 min 356 W/m 19,3 km/h (3 Bft) 97,87 %
12.08.2019 09:02 17,4 C 20,0 C 17,2 C 80 % 1015,3 hPa 0,0 l/m 0 min 0 min 123 W/m 16,1 km/h (3 Bft) 93,62 %
12.08.2019 09:04 17,5 C 19,4 C 17,2 C 79 % 1015,3 hPa 0,0 l/m 0 min 0 min 165 W/m 12,9 km/h (3 Bft) 97,83 %
12.08.2019 09:06 17,6 C 20,6 C 18,9 C 79 % 1015,4 hPa 0,0 l/m 2 min 0 min 295 W/m 9,7 km/h (2 Bft) 97,87 %
12.08.2019 09:08 17,7 C 21,7 C 20,6 C 79 % 1015,4 hPa 0,0 l/m 2 min 0 min 372 W/m 12,9 km/h (3 Bft) 97,87 %
12.08.2019 09:10 17,8 C 22,8 C 21,7 C 79 % 1015,4 hPa 0,0 l/m 2 min 0 min 378 W/m 12,9 km/h (3 Bft) 97,87 %
12.08.2019 09:12 17,9 C 22,8 C 21,7 C 78 % 1015,4 hPa 0,0 l/m 2 min 0 min 381 W/m 9,7 km/h (2 Bft) 97,87 %
12.08.2019 09:14 18,0 C 22,8 C 22,2 C 78 % 1015,4 hPa 0,0 l/m 2 min 0 min 387 W/m 12,9 km/h (3 Bft) 97,87 %
12.08.2019 09:16 18,2 C 22,8 C 22,2 C 77 % 1015,4 hPa 0,0 l/m 2 min 0 min 393 W/m 6,4 km/h (2 Bft) 97,83 %
12.08.2019 09:18 18,2 C 23,3 C 22,8 C 78 % 1015,3 hPa 0,0 l/m 2 min 0 min 399 W/m 6,4 km/h (2 Bft) 95,74 %
12.08.2019 09:20 18,4 C 23,3 C 23,3 C 77 % 1015,3 hPa 0,0 l/m 2 min 0 min 405 W/m 6,4 km/h (2 Bft) 97,87 %
12.08.2019 09:22 18,5 C 23,3 C 23,3 C 77 % 1015,4 hPa 0,0 l/m 2 min 0 min 411 W/m 16,1 km/h (3 Bft) 100,00 %
12.08.2019 09:24 18,6 C 22,8 C 22,2 C 76 % 1015,4 hPa 0,0 l/m 2 min 0 min 415 W/m 6,4 km/h (2 Bft) 100,00 %
12.08.2019 09:26 18,7 C 23,3 C 22,2 C 76 % 1015,4 hPa 0,0 l/m 2 min 0 min 423 W/m 6,4 km/h (2 Bft) 100,00 %
12.08.2019 09:28 18,8 C 22,8 C 22,8 C 75 % 1015,4 hPa 0,0 l/m 2 min 0 min 429 W/m 9,7 km/h (2 Bft) 100,00 %
12.08.2019 09:30 18,9 C 23,3 C 23,3 C 75 % 1015,4 hPa 0,0 l/m 2 min 0 min 436 W/m 9,7 km/h (2 Bft) 100,00 %
12.08.2019 09:32 19,0 C 23,9 C 23,3 C 76 % 1015,4 hPa 0,0 l/m 2 min 0 min 442 W/m 6,4 km/h (2 Bft) 100,00 %
12.08.2019 09:34 19,1 C 23,9 C 23,9 C 75 % 1015,3 hPa 0,0 l/m 2 min 0 min 449 W/m 3,2 km/h (1 Bft) 100,00 %
12.08.2019 09:36 19,2 C 23,9 C 24,4 C 75 % 1015,3 hPa 0,0 l/m 2 min 0 min 456 W/m 3,2 km/h (1 Bft) 100,00 %
12.08.2019 09:38 19,3 C 23,9 C 24,4 C 74 % 1015,2 hPa 0,0 l/m 2 min 0 min 461 W/m 9,7 km/h (2 Bft) 97,83 %
12.08.2019 09:40 19,4 C 24,4 C 24,4 C 74 % 1015,2 hPa 0,0 l/m 2 min 0 min 468 W/m 6,4 km/h (2 Bft) 97,87 %
12.08.2019 09:42 19,6 C 24,4 C 24,4 C 74 % 1015,3 hPa 0,0 l/m 2 min 0 min 472 W/m 6,4 km/h (2 Bft) 97,87 %
12.08.2019 09:44 19,7 C 24,4 C 25,0 C 73 % 1015,3 hPa 0,0 l/m 2 min 0 min 476 W/m 12,9 km/h (3 Bft) 97,87 %
12.08.2019 09:46 19,8 C 24,4 C 24,4 C 73 % 1015,3 hPa 0,0 l/m 2 min 0 min 482 W/m 9,7 km/h (2 Bft) 97,87 %
12.08.2019 09:48 19,9 C 23,9 C 23,9 C 72 % 1015,3 hPa 0,0 l/m 2 min 0 min 490 W/m 9,7 km/h (2 Bft) 97,87 %
12.08.2019 09:50 20,0 C 24,4 C 24,4 C 72 % 1015,2 hPa 0,0 l/m 2 min 0 min 496 W/m 6,4 km/h (2 Bft) 97,83 %
12.08.2019 09:52 20,1 C 23,9 C 23,9 C 71 % 1015,2 hPa 0,0 l/m 2 min 0 min 501 W/m 9,7 km/h (2 Bft) 97,87 %
12.08.2019 09:54 20,1 C 23,3 C 23,9 C 71 % 1015,2 hPa 0,0 l/m 2 min 0 min 507 W/m 12,9 km/h (3 Bft) 97,87 %
12.08.2019 09:56 20,2 C 24,4 C 25,6 C 71 % 1015,2 hPa 0,0 l/m 2 min 0 min 514 W/m 12,9 km/h (3 Bft) 95,74 %
12.08.2019 09:58 20,3 C 24,4 C 25,0 C 70 % 1015,2 hPa 0,0 l/m 2 min 0 min 517 W/m 6,4 km/h (2 Bft) 97,87 %
12.08.2019 10:00 20,3 C 25,0 C 25,0 C 71 % 1015,3 hPa 0,0 l/m 2 min 0 min 524 W/m 9,7 km/h (2 Bft) 97,87 %
12.08.2019 10:02 20,4 C 25,6 C 26,1 C 70 % 1015,3 hPa 0,0 l/m 2 min 0 min 533 W/m 9,7 km/h (2 Bft) 95,65 %
12.08.2019 10:04 20,5 C 24,4 C 25,6 C 70 % 1015,3 hPa 0,0 l/m 2 min 0 min 544 W/m 16,1 km/h (3 Bft) 97,87 %
12.08.2019 10:06 20,5 C 23,3 C 23,9 C 69 % 1015,3 hPa 0,0 l/m 2 min 0 min 298 W/m 16,1 km/h (3 Bft) 95,74 %
12.08.2019 10:08 20,6 C 23,9 C 24,4 C 69 % 1015,3 hPa 0,0 l/m 0 min 0 min 132 W/m 9,7 km/h (2 Bft) 97,87 %
12.08.2019 10:10 20,6 C 25,0 C 25,0 C 69 % 1015,3 hPa 0,0 l/m 2 min 0 min 339 W/m 19,3 km/h (3 Bft) 97,87 %
12.08.2019 10:12 20,7 C 25,0 C 25,0 C 69 % 1015,3 hPa 0,0 l/m 2 min 0 min 583 W/m 16,1 km/h (3 Bft) 97,87 %
12.08.2019 10:14 20,7 C 23,9 C 24,4 C 69 % 1015,4 hPa 0,0 l/m 2 min 0 min 574 W/m 12,9 km/h (3 Bft) 97,83 %
12.08.2019 10:16 20,7 C 23,3 C 24,4 C 68 % 1015,4 hPa 0,0 l/m 2 min 0 min 572 W/m 19,3 km/h (3 Bft) 97,87 %
12.08.2019 10:18 20,7 C 23,9 C 24,4 C 68 % 1015,4 hPa 0,0 l/m 2 min 0 min 575 W/m 16,1 km/h (3 Bft) 95,74 %
12.08.2019 10:20 20,7 C 23,3 C 25,0 C 68 % 1015,3 hPa 0,0 l/m 2 min 0 min 598 W/m 19,3 km/h (3 Bft) 97,87 %
12.08.2019 10:22 20,8 C 23,3 C 24,4 C 69 % 1015,2 hPa 0,0 l/m 2 min 0 min 608 W/m 9,7 km/h (2 Bft) 97,87 %
12.08.2019 10:24 20,9 C 25,0 C 25,6 C 69 % 1015,3 hPa 0,0 l/m 2 min 0 min 609 W/m 9,7 km/h (2 Bft) 97,83 %
12.08.2019 10:26 20,9 C 23,9 C 24,4 C 68 % 1015,3 hPa 0,0 l/m 2 min 0 min 614 W/m 9,7 km/h (2 Bft) 97,87 %
12.08.2019 10:28 21,0 C 25,0 C 25,0 C 68 % 1015,3 hPa 0,0 l/m 2 min 0 min 629 W/m 9,7 km/h (2 Bft) 97,87 %
12.08.2019 10:30 21,0 C 23,3 C 23,9 C 67 % 1015,2 hPa 0,0 l/m 2 min 0 min 626 W/m 16,1 km/h (3 Bft) 100,00 %
12.08.2019 10:32 21,0 C 23,9 C 23,9 C 68 % 1015,2 hPa 0,0 l/m 2 min 0 min 619 W/m 9,7 km/h (2 Bft) 100,00 %
12.08.2019 10:34 21,1 C 24,4 C 25,0 C 68 % 1015,2 hPa 0,0 l/m 2 min 0 min 640 W/m 12,9 km/h (3 Bft) 100,00 %
12.08.2019 10:36 21,1 C 24,4 C 23,9 C 67 % 1015,3 hPa 0,0 l/m 2 min 0 min 308 W/m 9,7 km/h (2 Bft) 100,00 %
12.08.2019 10:38 21,2 C 25,0 C 25,0 C 67 % 1015,2 hPa 0,0 l/m 0 min 0 min 141 W/m 6,4 km/h (2 Bft) 100,00 %
12.08.2019 10:40 21,2 C 26,1 C 26,1 C 68 % 1015,2 hPa 0,0 l/m 2 min 0 min 613 W/m 9,7 km/h (2 Bft) 100,00 %
12.08.2019 10:42 21,3 C 25,6 C 25,6 C 67 % 1015,3 hPa 0,0 l/m 2 min 0 min 541 W/m 9,7 km/h (2 Bft) 100,00 %
12.08.2019 10:44 21,3 C 24,4 C 25,0 C 66 % 1015,2 hPa 0,0 l/m 2 min 0 min 650 W/m 9,7 km/h (2 Bft) 100,00 %
12.08.2019 10:46 21,3 C 25,6 C 26,1 C 67 % 1015,2 hPa 0,0 l/m 2 min 0 min 654 W/m 16,1 km/h (3 Bft) 100,00 %
12.08.2019 10:48 21,3 C 26,1 C 26,1 C 66 % 1015,2 hPa 0,0 l/m 2 min 0 min 661 W/m 12,9 km/h (3 Bft) 97,83 %
12.08.2019 10:50 21,4 C 26,1 C 26,7 C 67 % 1015,1 hPa 0,0 l/m 2 min 0 min 657 W/m 19,3 km/h (3 Bft) 100,00 %
12.08.2019 10:52 21,4 C 25,6 C 26,7 C 67 % 1015,1 hPa 0,0 l/m 2 min 0 min 665 W/m 12,9 km/h (3 Bft) 100,00 %
12.08.2019 10:54 21,4 C 25,6 C 26,7 C 66 % 1015,2 hPa 0,0 l/m 2 min 0 min 676 W/m 9,7 km/h (2 Bft) 97,87 %
12.08.2019 10:56 21,5 C 25,0 C 26,7 C 66 % 1015,2 hPa 0,0 l/m 2 min 0 min 679 W/m 19,3 km/h (3 Bft) 97,87 %
12.08.2019 10:58 21,6 C 25,6 C 26,7 C 66 % 1015,1 hPa 0,0 l/m 2 min 0 min 691 W/m 9,7 km/h (2 Bft) 100,00 %
12.08.2019 11:00 21,7 C 27,2 C 27,8 C 66 % 1015,2 hPa 0,0 l/m 2 min 0 min 709 W/m 19,3 km/h (3 Bft) 100,00 %
12.08.2019 11:02 21,8 C 26,7 C 27,8 C 66 % 1015,2 hPa 0,0 l/m 2 min 0 min 694 W/m 19,3 km/h (3 Bft) 95,74 %
12.08.2019 11:04 21,8 C 25,0 C 25,6 C 64 % 1015,1 hPa 0,0 l/m 2 min 0 min 718 W/m 12,9 km/h (3 Bft) 97,87 %
12.08.2019 11:06 21,8 C 25,6 C 26,1 C 64 % 1015,1 hPa 0,0 l/m 2 min 0 min 721 W/m 12,9 km/h (3 Bft) 100,00 %
12.08.2019 11:08 21,9 C 26,1 C 27,2 C 64 % 1015,1 hPa 0,0 l/m 2 min 0 min 720 W/m 16,1 km/h (3 Bft) 97,87 %
12.08.2019 11:10 21,9 C 26,7 C 28,3 C 64 % 1015,0 hPa 0,0 l/m 2 min 0 min 728 W/m 9,7 km/h (2 Bft) 97,92 %
12.08.2019 11:12 22,1 C 27,2 C 28,3 C 63 % 1015,0 hPa 0,0 l/m 2 min 0 min 724 W/m 16,1 km/h (3 Bft) 97,87 %
12.08.2019 11:14 22,1 C 27,2 C 28,9 C 63 % 1015,0 hPa 0,0 l/m 2 min 0 min 735 W/m 16,1 km/h (3 Bft) 97,87 %
12.08.2019 11:16 22,2 C 27,8 C 28,9 C 63 % 1015,0 hPa 0,0 l/m 2 min 0 min 758 W/m 12,9 km/h (3 Bft) 97,87 %
12.08.2019 11:18 22,3 C 27,8 C 28,9 C 64 % 1015,0 hPa 0,0 l/m 2 min 0 min 782 W/m 6,4 km/h (2 Bft) 97,87 %
12.08.2019 11:20 22,4 C 27,8 C 28,3 C 63 % 1015,0 hPa 0,0 l/m 2 min 0 min 790 W/m 9,7 km/h (2 Bft) 95,65 %
12.08.2019 11:22 22,5 C 28,3 C 28,3 C 63 % 1015,0 hPa 0,0 l/m 2 min 0 min 798 W/m 9,7 km/h (2 Bft) 97,87 %
12.08.2019 11:24 22,6 C 28,9 C 28,3 C 63 % 1014,9 hPa 0,0 l/m 2 min 0 min 825 W/m 16,1 km/h (3 Bft) 97,87 %
12.08.2019 11:26 22,7 C 27,8 C 26,7 C 62 % 1015,0 hPa 0,0 l/m 2 min 0 min 846 W/m 25,7 km/h (4 Bft) 97,87 %
12.08.2019 11:28 22,8 C 28,3 C 25,6 C 62 % 1015,0 hPa 0,0 l/m 2 min 0 min 846 W/m 19,3 km/h (3 Bft) 97,87 %
12.08.2019 11:30 22,9 C 27,8 C 25,0 C 61 % 1015,0 hPa 0,0 l/m 2 min 0 min 811 W/m 12,9 km/h (3 Bft) 97,87 %
12.08.2019 11:32 22,9 C 27,8 C 25,0 C 61 % 1015,1 hPa 0,0 l/m 2 min 0 min 809 W/m 16,1 km/h (3 Bft) 97,83 %
12.08.2019 11:34 23,1 C 27,8 C 24,4 C 61 % 1015,1 hPa 0,0 l/m 2 min 0 min 847 W/m 16,1 km/h (3 Bft) 97,87 %
12.08.2019 11:36 23,2 C 26,7 C 23,9 C 60 % 1015,0 hPa 0,0 l/m 2 min 0 min 860 W/m 16,1 km/h (3 Bft) 95,74 %
12.08.2019 11:38 23,2 C 25,0 C 23,3 C 60 % 1015,1 hPa 0,0 l/m 2 min 0 min 594 W/m 16,1 km/h (3 Bft) 95,74 %
12.08.2019 11:40 23,1 C 22,8 C 22,2 C 59 % 1015,0 hPa 0,0 l/m 0 min 0 min 242 W/m 19,3 km/h (3 Bft) 97,87 %
12.08.2019 11:42 22,8 C 22,8 C 22,2 C 61 % 1015,0 hPa 0,0 l/m 0 min 0 min 217 W/m 9,7 km/h (2 Bft) 97,87 %
12.08.2019 11:44 22,7 C 22,2 C 21,7 C 60 % 1015,1 hPa 0,0 l/m 0 min 0 min 187 W/m 9,7 km/h (2 Bft) 97,83 %
12.08.2019 11:46 22,6 C 22,2 C 21,7 C 60 % 1014,9 hPa 0,0 l/m 0 min 0 min 202 W/m 19,3 km/h (3 Bft) 95,74 %
12.08.2019 11:48 22,5 C 22,8 C 21,7 C 61 % 1015,0 hPa 0,0 l/m 0 min 0 min 186 W/m 12,9 km/h (3 Bft) 97,87 %
12.08.2019 11:50 22,3 C 22,2 C 21,7 C 62 % 1015,0 hPa 0,0 l/m 0 min 0 min 184 W/m 9,7 km/h (2 Bft) 100,00 %
12.08.2019 11:52 22,3 C 25,0 C 22,8 C 62 % 1015,0 hPa 0,0 l/m 0 min 0 min 336 W/m 16,1 km/h (3 Bft) 97,87 %
12.08.2019 11:54 22,2 C 23,3 C 22,2 C 61 % 1015,0 hPa 0,0 l/m 2 min 0 min 666 W/m 19,3 km/h (3 Bft) 95,74 %
12.08.2019 11:56 22,2 C 23,3 C 22,2 C 61 % 1015,0 hPa 0,0 l/m 0 min 0 min 246 W/m 16,1 km/h (3 Bft) 95,65 %
12.08.2019 11:58 22,2 C 23,3 C 22,2 C 62 % 1015,0 hPa 0,0 l/m 0 min 0 min 270 W/m 12,9 km/h (3 Bft) 100,00 %
12.08.2019 12:00 22,1 C 25,6 C 22,8 C 63 % 1014,9 hPa 0,0 l/m 2 min 0 min 532 W/m 6,4 km/h (2 Bft) 97,87 %
12.08.2019 12:02 22,2 C 24,4 C 22,8 C 63 % 1015,0 hPa 0,0 l/m 2 min 0 min 603 W/m 6,4 km/h (2 Bft) 100,00 %
12.08.2019 12:04 22,2 C 25,0 C 22,8 C 62 % 1014,9 hPa 0,0 l/m 0 min 0 min 316 W/m 6,4 km/h (2 Bft) 97,87 %
12.08.2019 12:08 22,3 C 27,2 C 23,3 C 62 % 1014,9 hPa 0,0 l/m 0 min 0 min 341 W/m 22,5 km/h (4 Bft) 98,92 %
12.08.2019 12:10 22,4 C 27,8 C 23,9 C 62 % 1014,9 hPa 0,0 l/m 2 min 0 min 818 W/m 9,7 km/h (2 Bft) 97,87 %
12.08.2019 12:12 22,6 C 27,8 C 23,3 C 61 % 1014,9 hPa 0,0 l/m 2 min 0 min 1032 W/m 9,7 km/h (2 Bft) 97,87 %
12.08.2019 12:14 22,6 C 27,2 C 23,9 C 61 % 1014,9 hPa 0,0 l/m 2 min 0 min 1037 W/m 9,7 km/h (2 Bft) 97,87 %
12.08.2019 12:16 22,7 C 28,3 C 23,9 C 61 % 1014,9 hPa 0,0 l/m 2 min 0 min 1006 W/m 9,7 km/h (2 Bft) 97,87 %
12.08.2019 12:18 22,9 C 26,7 C 23,9 C 61 % 1014,8 hPa 0,0 l/m 2 min 0 min 682 W/m 12,9 km/h (3 Bft) 97,87 %
12.08.2019 12:20 22,9 C 25,0 C 22,8 C 60 % 1014,8 hPa 0,0 l/m 0 min 0 min 242 W/m 12,9 km/h (3 Bft) 97,83 %
12.08.2019 12:22 23,0 C 27,8 C 23,3 C 60 % 1014,9 hPa 0,0 l/m 2 min 0 min 710 W/m 12,9 km/h (3 Bft) 97,87 %
12.08.2019 12:24 23,1 C 27,8 C 23,3 C 60 % 1014,8 hPa 0,0 l/m 2 min 0 min 919 W/m 22,5 km/h (4 Bft) 95,74 %
12.08.2019 12:26 23,2 C 27,2 C 23,9 C 59 % 1014,8 hPa 0,0 l/m 2 min 0 min 963 W/m 22,5 km/h (4 Bft) 97,87 %
12.08.2019 12:28 23,2 C 25,6 C 23,3 C 59 % 1014,8 hPa 0,0 l/m 2 min 0 min 520 W/m 12,9 km/h (3 Bft) 97,87 %
12.08.2019 12:30 23,2 C 25,0 C 22,8 C 59 % 1014,8 hPa 0,0 l/m 0 min 0 min 229 W/m 6,4 km/h (2 Bft) 97,87 %
12.08.2019 12:32 23,3 C 24,4 C 22,8 C 59 % 1014,9 hPa 0,0 l/m 0 min 0 min 228 W/m 19,3 km/h (3 Bft) 95,65 %
12.08.2019 12:34 23,3 C 26,7 C 23,3 C 59 % 1014,8 hPa 0,0 l/m 2 min 0 min 430 W/m 9,7 km/h (2 Bft) 95,74 %
12.08.2019 12:36 23,3 C 27,2 C 23,9 C 59 % 1014,8 hPa 0,0 l/m 2 min 0 min 976 W/m 16,1 km/h (3 Bft) 97,87 %
12.08.2019 12:38 23,3 C 24,4 C 23,3 C 58 % 1014,9 hPa 0,0 l/m 0 min 0 min 213 W/m 19,3 km/h (3 Bft) 97,87 %
12.08.2019 12:40 23,4 C 27,2 C 23,3 C 58 % 1014,9 hPa 0,0 l/m 2 min 0 min 435 W/m 9,7 km/h (2 Bft) 97,87 %
12.08.2019 12:42 23,4 C 25,0 C 23,3 C 58 % 1014,8 hPa 0,0 l/m 2 min 0 min 587 W/m 9,7 km/h (2 Bft) 97,83 %
12.08.2019 12:44 23,4 C 24,4 C 22,8 C 57 % 1014,8 hPa 0,0 l/m 0 min 0 min 154 W/m 9,7 km/h (2 Bft) 95,74 %
12.08.2019 12:46 23,4 C 26,1 C 23,3 C 58 % 1014,8 hPa 0,0 l/m 2 min 0 min 742 W/m 9,7 km/h (2 Bft) 95,74 %
12.08.2019 12:48 23,4 C 26,1 C 23,3 C 58 % 1014,8 hPa 0,0 l/m 0 min 0 min 376 W/m 9,7 km/h (2 Bft) 95,74 %
12.08.2019 12:50 23,4 C 25,0 C 23,3 C 58 % 1014,8 hPa 0,0 l/m 0 min 0 min 202 W/m 9,7 km/h (2 Bft) 95,74 %
12.08.2019 12:52 23,4 C 26,1 C 23,9 C 58 % 1014,8 hPa 0,0 l/m 0 min 0 min 277 W/m 6,4 km/h (2 Bft) 95,74 %
12.08.2019 12:54 23,4 C 25,6 C 23,9 C 58 % 1014,7 hPa 0,0 l/m 0 min 0 min 294 W/m 22,5 km/h (4 Bft) 95,65 %
12.08.2019 12:56 23,4 C 25,6 C 23,9 C 59 % 1014,7 hPa 0,0 l/m 0 min 0 min 270 W/m 12,9 km/h (3 Bft) 91,49 %
12.08.2019 12:58 23,4 C 25,0 C 23,3 C 58 % 1014,6 hPa 0,0 l/m 0 min 0 min 251 W/m 6,4 km/h (2 Bft) 93,62 %
12.08.2019 13:00 23,4 C 26,7 C 23,9 C 59 % 1014,6 hPa 0,0 l/m 0 min 0 min 229 W/m 9,7 km/h (2 Bft) 95,74 %
12.08.2019 13:02 23,5 C 28,3 C 24,4 C 58 % 1014,6 hPa 0,0 l/m 2 min 0 min 696 W/m 12,9 km/h (3 Bft) 95,74 %
12.08.2019 13:04 23,6 C 27,8 C 24,4 C 58 % 1014,6 hPa 0,0 l/m 2 min 0 min 972 W/m 9,7 km/h (2 Bft) 95,74 %
12.08.2019 13:06 23,7 C 27,8 C 24,4 C 58 % 1014,6 hPa 0,0 l/m 2 min 0 min 972 W/m 9,7 km/h (2 Bft) 93,48 %
12.08.2019 13:08 23,8 C 26,1 C 23,9 C 57 % 1014,6 hPa 0,0 l/m 2 min 0 min 837 W/m 19,3 km/h (3 Bft) 95,74 %
12.08.2019 13:10 23,8 C 25,0 C 23,3 C 57 % 1014,6 hPa 0,0 l/m 0 min 0 min 225 W/m 9,7 km/h (2 Bft) 95,74 %
12.08.2019 13:12 23,8 C 24,4 C 23,3 C 56 % 1014,5 hPa 0,0 l/m 0 min 0 min 222 W/m 12,9 km/h (3 Bft) 95,74 %
12.08.2019 13:14 23,7 C 25,0 C 23,3 C 57 % 1014,6 hPa 0,0 l/m 0 min 0 min 238 W/m 6,4 km/h (2 Bft) 95,74 %
12.08.2019 13:16 23,7 C 26,7 C 23,9 C 57 % 1014,5 hPa 0,0 l/m 0 min 0 min 311 W/m 19,3 km/h (3 Bft) 93,62 %
12.08.2019 13:18 23,7 C 28,9 C 25,0 C 58 % 1014,5 hPa 0,0 l/m 2 min 0 min 958 W/m 9,7 km/h (2 Bft) 95,65 %
12.08.2019 13:20 23,8 C 28,9 C 25,6 C 57 % 1014,4 hPa 0,0 l/m 2 min 0 min 1027 W/m 16,1 km/h (3 Bft) 97,87 %
12.08.2019 13:22 23,9 C 30,6 C 26,1 C 57 % 1014,4 hPa 0,0 l/m 2 min 0 min 1002 W/m 16,1 km/h (3 Bft) 97,87 %
12.08.2019 13:24 24,1 C 30,6 C 26,7 C 56 % 1014,3 hPa 0,0 l/m 2 min 0 min 975 W/m 19,3 km/h (3 Bft) 95,74 %
12.08.2019 13:26 24,3 C 30,6 C 26,7 C 57 % 1014,3 hPa 0,0 l/m 2 min 0 min 961 W/m 16,1 km/h (3 Bft) 95,74 %
12.08.2019 13:28 24,4 C 26,7 C 25,0 C 55 % 1014,3 hPa 0,0 l/m 0 min 0 min 345 W/m 12,9 km/h (3 Bft) 97,83 %
12.08.2019 13:30 24,4 C 26,7 C 24,4 C 54 % 1014,3 hPa 0,0 l/m 0 min 0 min 225 W/m 16,1 km/h (3 Bft) 97,87 %
12.08.2019 13:32 24,4 C 27,2 C 25,6 C 55 % 1014,2 hPa 0,0 l/m 2 min 0 min 721 W/m 9,7 km/h (2 Bft) 97,87 %
12.08.2019 13:34 24,4 C 26,7 C 25,6 C 54 % 1014,2 hPa 0,0 l/m 0 min 0 min 316 W/m 12,9 km/h (3 Bft) 97,87 %
12.08.2019 13:36 24,4 C 27,2 C 27,2 C 53 % 1014,2 hPa 0,0 l/m 2 min 0 min 594 W/m 29,0 km/h (5 Bft) 100,00 %
12.08.2019 13:38 24,5 C 28,3 C 27,8 C 53 % 1014,1 hPa 0,0 l/m 2 min 0 min 977 W/m 12,9 km/h (3 Bft) 97,87 %
12.08.2019 13:40 24,5 C 26,1 C 25,6 C 52 % 1014,1 hPa 0,0 l/m 2 min 0 min 653 W/m 19,3 km/h (3 Bft) 97,83 %
12.08.2019 13:42 24,5 C 27,8 C 25,6 C 53 % 1014,0 hPa 0,0 l/m 2 min 0 min 614 W/m 12,9 km/h (3 Bft) 95,74 %
12.08.2019 13:44 24,6 C 28,3 C 27,2 C 53 % 1013,9 hPa 0,0 l/m 2 min 0 min 939 W/m 12,9 km/h (3 Bft) 95,74 %
12.08.2019 13:46 24,6 C 28,9 C 28,9 C 53 % 1014,0 hPa 0,0 l/m 2 min 0 min 921 W/m 16,1 km/h (3 Bft) 97,87 %
12.08.2019 13:48 24,6 C 28,9 C 28,9 C 52 % 1013,9 hPa 0,0 l/m 2 min 0 min 946 W/m 19,3 km/h (3 Bft) 97,87 %
12.08.2019 13:50 24,7 C 30,0 C 30,6 C 53 % 1013,9 hPa 0,0 l/m 2 min 0 min 947 W/m 12,9 km/h (3 Bft) 95,74 %
12.08.2019 13:52 24,8 C 30,0 C 30,6 C 53 % 1013,9 hPa 0,0 l/m 2 min 0 min 949 W/m 12,9 km/h (3 Bft) 97,83 %
12.08.2019 13:54 24,9 C 26,7 C 27,2 C 53 % 1013,8 hPa 0,0 l/m 2 min 0 min 513 W/m 19,3 km/h (3 Bft) 95,74 %
12.08.2019 13:56 24,9 C 26,7 C 27,2 C 53 % 1013,8 hPa 0,0 l/m 0 min 0 min 195 W/m 22,5 km/h (4 Bft) 93,62 %
12.08.2019 13:58 24,9 C 28,3 C 28,9 C 53 % 1013,7 hPa 0,0 l/m 2 min 0 min 875 W/m 12,9 km/h (3 Bft) 95,74 %
12.08.2019 14:00 24,9 C 28,9 C 30,0 C 53 % 1013,7 hPa 0,0 l/m 2 min 0 min 987 W/m 22,5 km/h (4 Bft) 97,87 %
12.08.2019 14:02 24,9 C 29,4 C 31,1 C 53 % 1013,6 hPa 0,0 l/m 2 min 0 min 951 W/m 9,7 km/h (2 Bft) 97,87 %
12.08.2019 14:04 25,1 C 29,4 C 30,6 C 55 % 1013,6 hPa 0,0 l/m 2 min 0 min 953 W/m 16,1 km/h (3 Bft) 97,83 %
12.08.2019 14:06 25,1 C 26,7 C 27,2 C 51 % 1013,6 hPa 0,0 l/m 0 min 0 min 213 W/m 16,1 km/h (3 Bft) 97,87 %
12.08.2019 14:08 24,9 C 25,0 C 25,6 C 50 % 1013,5 hPa 0,0 l/m 0 min 0 min 202 W/m 16,1 km/h (3 Bft) 97,87 %
12.08.2019 14:10 24,9 C 23,9 C 25,0 C 51 % 1013,5 hPa 0,0 l/m 0 min 0 min 171 W/m 12,9 km/h (3 Bft) 97,87 %
12.08.2019 14:12 24,8 C 23,9 C 23,9 C 51 % 1013,5 hPa 0,0 l/m 0 min 0 min 151 W/m 9,7 km/h (2 Bft) 95,74 %
12.08.2019 14:14 24,7 C 23,3 C 23,3 C 52 % 1013,6 hPa 0,0 l/m 0 min 0 min 159 W/m 9,7 km/h (2 Bft) 95,74 %
12.08.2019 14:16 24,6 C 23,3 C 23,3 C 52 % 1013,6 hPa 0,0 l/m 0 min 0 min 172 W/m 12,9 km/h (3 Bft) 95,65 %
12.08.2019 14:18 24,6 C 23,9 C 23,3 C 53 % 1013,6 hPa 0,0 l/m 0 min 0 min 188 W/m 6,4 km/h (2 Bft) 97,87 %
12.08.2019 14:20 24,4 C 23,9 C 23,3 C 52 % 1013,6 hPa 0,0 l/m 0 min 0 min 198 W/m 6,4 km/h (2 Bft) 95,74 %
12.08.2019 14:22 24,3 C 23,9 C 23,3 C 52 % 1013,6 hPa 0,0 l/m 0 min 0 min 192 W/m 9,7 km/h (2 Bft) 97,87 %
12.08.2019 14:24 24,3 C 23,9 C 23,3 C 52 % 1013,5 hPa 0,0 l/m 0 min 0 min 196 W/m 12,9 km/h (3 Bft) 95,74 %
12.08.2019 14:26 24,2 C 23,9 C 23,3 C 52 % 1013,5 hPa 0,0 l/m 0 min 0 min 210 W/m 12,9 km/h (3 Bft) 100,00 %
12.08.2019 14:28 24,1 C 27,8 C 26,7 C 53 % 1013,5 hPa 0,0 l/m 2 min 0 min 601 W/m 9,7 km/h (2 Bft) 100,00 %
12.08.2019 14:30 24,1 C 28,3 C 26,7 C 53 % 1013,4 hPa 0,0 l/m 2 min 0 min 977 W/m 9,7 km/h (2 Bft) 100,00 %
12.08.2019 14:32 24,2 C 29,4 C 26,7 C 53 % 1013,3 hPa 0,0 l/m 2 min 0 min 962 W/m 9,7 km/h (2 Bft) 97,87 %
12.08.2019 14:34 24,2 C 29,4 C 26,1 C 53 % 1013,3 hPa 0,0 l/m 2 min 0 min 1048 W/m 12,9 km/h (3 Bft) 100,00 %
12.08.2019 14:36 24,3 C 28,9 C 26,1 C 53 % 1013,3 hPa 0,0 l/m 2 min 0 min 1056 W/m 16,1 km/h (3 Bft) 100,00 %
12.08.2019 14:38 24,4 C 26,7 C 25,0 C 53 % 1013,4 hPa 0,0 l/m 2 min 0 min 444 W/m 9,7 km/h (2 Bft) 100,00 %
12.08.2019 14:40 24,4 C 26,7 C 25,0 C 53 % 1013,4 hPa 0,0 l/m 0 min 0 min 255 W/m 6,4 km/h (2 Bft) 100,00 %
12.08.2019 14:42 24,4 C 25,6 C 24,4 C 53 % 1013,4 hPa 0,0 l/m 0 min 0 min 237 W/m 9,7 km/h (2 Bft) 100,00 %
12.08.2019 14:44 24,4 C 25,0 C 24,4 C 52 % 1013,3 hPa 0,0 l/m 0 min 0 min 199 W/m 9,7 km/h (2 Bft) 97,87 %
12.08.2019 14:46 24,5 C 25,6 C 24,4 C 53 % 1013,2 hPa 0,0 l/m 0 min 0 min 237 W/m 9,7 km/h (2 Bft) 95,74 %
12.08.2019 14:48 24,4 C 25,0 C 23,9 C 52 % 1013,2 hPa 0,0 l/m 0 min 0 min 288 W/m 9,7 km/h (2 Bft) 100,00 %
12.08.2019 14:50 24,4 C 25,6 C 24,4 C 51 % 1013,3 hPa 0,0 l/m 0 min 0 min 312 W/m 9,7 km/h (2 Bft) 100,00 %
12.08.2019 14:52 24,4 C 28,9 C 25,0 C 52 % 1013,3 hPa 0,0 l/m 0 min 0 min 315 W/m 12,9 km/h (3 Bft) 100,00 %
12.08.2019 14:54 24,6 C 28,9 C 25,6 C 52 % 1013,3 hPa 0,0 l/m 2 min 0 min 734 W/m 16,1 km/h (3 Bft) 100,00 %
12.08.2019 14:56 24,7 C 27,2 C 25,0 C 52 % 1013,2 hPa 0,0 l/m 2 min 0 min 418 W/m 9,7 km/h (2 Bft) 100,00 %
12.08.2019 14:58 24,7 C 26,1 C 24,4 C 52 % 1013,1 hPa 0,0 l/m 0 min 0 min 274 W/m 9,7 km/h (2 Bft) 100,00 %
12.08.2019 15:00 24,7 C 25,6 C 24,4 C 52 % 1013,1 hPa 0,0 l/m 0 min 0 min 225 W/m 9,7 km/h (2 Bft) 100,00 %
12.08.2019 15:02 24,7 C 25,0 C 23,9 C 52 % 1013,1 hPa 0,0 l/m 0 min 0 min 213 W/m 12,9 km/h (3 Bft) 97,87 %
12.08.2019 15:04 24,6 C 24,4 C 23,9 C 52 % 1013,1 hPa 0,0 l/m 0 min 0 min 209 W/m 9,7 km/h (2 Bft) 100,00 %
12.08.2019 15:06 24,6 C 26,1 C 24,4 C 52 % 1013,2 hPa 0,0 l/m 0 min 0 min 225 W/m 6,4 km/h (2 Bft) 100,00 %
12.08.2019 15:08 24,6 C 25,6 C 24,4 C 52 % 1013,1 hPa 0,0 l/m 0 min 0 min 239 W/m 12,9 km/h (3 Bft) 100,00 %
12.08.2019 15:10 24,6 C 25,6 C 23,9 C 52 % 1013,1 hPa 0,0 l/m 0 min 0 min 244 W/m 9,7 km/h (2 Bft) 100,00 %
12.08.2019 15:12 24,6 C 25,0 C 23,9 C 52 % 1013,1 hPa 0,0 l/m 0 min 0 min 229 W/m 6,4 km/h (2 Bft) 100,00 %
12.08.2019 15:14 24,6 C 25,0 C 23,9 C 52 % 1013,0 hPa 0,0 l/m 0 min 0 min 236 W/m 6,4 km/h (2 Bft) 100,00 %
12.08.2019 15:16 24,5 C 25,0 C 23,9 C 53 % 1013,1 hPa 0,0 l/m 0 min 0 min 208 W/m 6,4 km/h (2 Bft) 100,00 %
12.08.2019 15:18 24,5 C 24,4 C 23,9 C 52 % 1013,1 hPa 0,0 l/m 0 min 0 min 196 W/m 6,4 km/h (2 Bft) 97,87 %
12.08.2019 15:20 24,4 C 23,9 C 23,9 C 51 % 1013,1 hPa 0,0 l/m 0 min 0 min 193 W/m 9,7 km/h (2 Bft) 100,00 %
12.08.2019 15:22 24,4 C 23,9 C 23,9 C 52 % 1013,1 hPa 0,0 l/m 0 min 0 min 178 W/m 9,7 km/h (2 Bft) 97,87 %
12.08.2019 15:24 24,3 C 23,9 C 23,9 C 52 % 1013,1 hPa 0,0 l/m 0 min 0 min 140 W/m 9,7 km/h (2 Bft) 100,00 %
12.08.2019 15:26 24,3 C 23,3 C 23,3 C 53 % 1013,1 hPa 0,0 l/m 0 min 0 min 93 W/m 6,4 km/h (2 Bft) 100,00 %
12.08.2019 15:28 24,3 C 22,8 C 23,3 C 53 % 1013,2 hPa 0,0 l/m 0 min 0 min 60 W/m 3,2 km/h (1 Bft) 97,83 %
12.08.2019 15:30 24,2 C 22,8 C 22,8 C 54 % 1013,2 hPa 0,0 l/m 0 min 0 min 44 W/m 6,4 km/h (2 Bft) 100,00 %
12.08.2019 15:32 24,1 C 22,2 C 22,8 C 54 % 1013,2 hPa 0,0 l/m 0 min 0 min 32 W/m 3,2 km/h (1 Bft) 100,00 %
12.08.2019 15:34 24,1 C 22,2 C 22,8 C 53 % 1013,3 hPa 0,0 l/m 0 min 0 min 24 W/m 6,4 km/h (2 Bft) 100,00 %
12.08.2019 15:36 23,9 C 22,2 C 22,2 C 53 % 1013,3 hPa 0,0 l/m 0 min 0 min 20 W/m 6,4 km/h (2 Bft) 100,00 %
12.08.2019 15:38 23,9 C 21,7 C 22,2 C 53 % 1013,3 hPa 0,0 l/m 0 min 0 min 19 W/m 9,7 km/h (2 Bft) 97,87 %
12.08.2019 15:40 23,7 C 21,7 C 22,2 C 53 % 1013,3 hPa 0,0 l/m 0 min 0 min 18 W/m 16,1 km/h (3 Bft) 100,00 %
12.08.2019 15:42 23,7 C 21,7 C 21,7 C 53 % 1013,2 hPa 0,0 l/m 0 min 0 min 17 W/m 9,7 km/h (2 Bft) 100,00 %
12.08.2019 15:44 23,6 C 21,1 C 21,7 C 54 % 1013,3 hPa 0,0 l/m 0 min 0 min 15 W/m 16,1 km/h (3 Bft) 97,87 %
12.08.2019 15:46 23,5 C 20,6 C 21,7 C 54 % 1013,3 hPa 0,0 l/m 0 min 0 min 13 W/m 6,4 km/h (2 Bft) 97,87 %
12.08.2019 15:48 23,4 C 20,0 C 21,1 C 56 % 1013,5 hPa 0,0 l/m 0 min 2 min 11 W/m 16,1 km/h (3 Bft) 97,87 %
12.08.2019 15:50 23,3 C 16,7 C 17,2 C 61 % 1013,7 hPa 0,4 l/m 0 min 2 min 11 W/m 12,9 km/h (3 Bft) 97,87 %
12.08.2019 15:52 22,8 C 14,4 C 14,4 C 66 % 1014,3 hPa 3,0 l/m 0 min 2 min 12 W/m 35,4 km/h (5 Bft) 95,65 %
12.08.2019 15:54 22,2 C 14,4 C 13,9 C 68 % 1014,1 hPa 0,4 l/m 0 min 2 min 16 W/m 29,0 km/h (5 Bft) 97,87 %
12.08.2019 15:56 21,6 C 13,9 C 13,9 C 69 % 1014,2 hPa 0,2 l/m 0 min 2 min 19 W/m 29,0 km/h (5 Bft) 91,49 %
12.08.2019 15:58 21,0 C 13,9 C 13,9 C 69 % 1014,1 hPa 0,2 l/m 0 min 2 min 21 W/m 25,7 km/h (4 Bft) 95,74 %
12.08.2019 16:00 20,4 C 13,9 C 13,3 C 72 % 1014,1 hPa 0,4 l/m 0 min 2 min 25 W/m 35,4 km/h (5 Bft) 93,62 %
12.08.2019 16:02 19,9 C 13,9 C 13,3 C 73 % 1014,2 hPa 0,2 l/m 0 min 2 min 26 W/m 19,3 km/h (3 Bft) 93,48 %
12.08.2019 16:04 19,4 C 13,9 C 13,9 C 75 % 1014,3 hPa 0,2 l/m 0 min 2 min 28 W/m 29,0 km/h (5 Bft) 95,74 %
12.08.2019 16:06 19,1 C 13,3 C 13,9 C 77 % 1014,3 hPa 0,0 l/m 0 min 2 min 32 W/m 29,0 km/h (5 Bft) 95,74 %
12.08.2019 16:08 18,7 C 13,9 C 13,9 C 77 % 1014,3 hPa 0,2 l/m 0 min 2 min 37 W/m 22,5 km/h (4 Bft) 93,62 %
12.08.2019 16:10 18,4 C 13,3 C 13,9 C 78 % 1014,2 hPa 0,0 l/m 0 min 2 min 43 W/m 22,5 km/h (4 Bft) 93,62 %
12.08.2019 16:12 18,1 C 13,3 C 13,3 C 78 % 1014,1 hPa 0,2 l/m 0 min 2 min 47 W/m 16,1 km/h (3 Bft) 91,49 %
12.08.2019 16:14 17,9 C 13,3 C 13,3 C 79 % 1014,0 hPa 0,0 l/m 0 min 2 min 60 W/m 19,3 km/h (3 Bft) 89,13 %
12.08.2019 16:16 17,7 C 13,3 C 13,3 C 79 % 1014,0 hPa 0,4 l/m 0 min 2 min 79 W/m 9,7 km/h (2 Bft) 93,62 %
12.08.2019 16:18 17,5 C 13,9 C 13,3 C 81 % 1014,0 hPa 0,0 l/m 0 min 2 min 115 W/m 12,9 km/h (3 Bft) 93,62 %
12.08.2019 16:20 17,3 C 14,4 C 13,9 C 82 % 1014,0 hPa 0,0 l/m 0 min 2 min 176 W/m 9,7 km/h (2 Bft) 95,74 %
12.08.2019 16:22 17,2 C 14,4 C 13,9 C 82 % 1013,9 hPa 0,0 l/m 0 min 2 min 259 W/m 9,7 km/h (2 Bft) 91,49 %
12.08.2019 16:24 17,1 C 15,6 C 14,4 C 83 % 1013,9 hPa 0,0 l/m 2 min 0 min 386 W/m 12,9 km/h (3 Bft) 93,62 %
12.08.2019 16:26 17,0 C 15,6 C 14,4 C 84 % 1013,9 hPa 0,0 l/m 2 min 0 min 329 W/m 16,1 km/h (3 Bft) 93,48 %
12.08.2019 16:28 16,9 C 15,6 C 15,0 C 85 % 1013,9 hPa 0,0 l/m 0 min 0 min 290 W/m 9,7 km/h (2 Bft) 93,62 %
12.08.2019 16:30 16,9 C 15,6 C 15,0 C 85 % 1013,9 hPa 0,0 l/m 0 min 0 min 239 W/m 19,3 km/h (3 Bft) 95,74 %
12.08.2019 16:32 16,8 C 15,6 C 15,0 C 85 % 1013,9 hPa 0,0 l/m 0 min 0 min 246 W/m 12,9 km/h (3 Bft) 91,49 %
12.08.2019 16:34 16,8 C 16,1 C 15,0 C 86 % 1013,8 hPa 0,0 l/m 0 min 0 min 286 W/m 16,1 km/h (3 Bft) 95,74 %
12.08.2019 16:36 16,8 C 16,7 C 15,6 C 87 % 1013,8 hPa 0,0 l/m 2 min 0 min 317 W/m 12,9 km/h (3 Bft) 95,74 %
12.08.2019 16:38 16,8 C 16,7 C 15,6 C 87 % 1013,7 hPa 0,0 l/m 0 min 0 min 291 W/m 9,7 km/h (2 Bft) 95,65 %
12.08.2019 16:40 16,9 C 16,7 C 15,6 C 88 % 1013,7 hPa 0,0 l/m 0 min 0 min 255 W/m 16,1 km/h (3 Bft) 93,62 %
12.08.2019 16:42 16,9 C 16,7 C 15,6 C 88 % 1013,7 hPa 0,0 l/m 0 min 0 min 246 W/m 9,7 km/h (2 Bft) 95,74 %
12.08.2019 16:44 16,9 C 16,7 C 15,6 C 88 % 1013,7 hPa 0,0 l/m 0 min 0 min 243 W/m 6,4 km/h (2 Bft) 93,62 %
12.08.2019 16:46 16,9 C 16,7 C 15,6 C 88 % 1013,6 hPa 0,0 l/m 0 min 0 min 240 W/m 12,9 km/h (3 Bft) 95,74 %
12.08.2019 16:48 16,9 C 16,7 C 15,6 C 88 % 1013,6 hPa 0,0 l/m 0 min 0 min 234 W/m 9,7 km/h (2 Bft) 95,74 %
12.08.2019 16:50 16,9 C 16,7 C 15,6 C 88 % 1013,6 hPa 0,0 l/m 0 min 0 min 238 W/m 9,7 km/h (2 Bft) 95,65 %
12.08.2019 16:52 17,0 C 16,7 C 15,6 C 88 % 1013,6 hPa 0,0 l/m 0 min 0 min 256 W/m 9,7 km/h (2 Bft) 89,36 %
12.08.2019 16:54 17,0 C 17,8 C 16,1 C 88 % 1013,6 hPa 0,0 l/m 2 min 0 min 334 W/m 6,4 km/h (2 Bft) 95,74 %
12.08.2019 16:56 17,1 C 18,9 C 16,1 C 89 % 1013,6 hPa 0,0 l/m 2 min 0 min 386 W/m 12,9 km/h (3 Bft) 95,74 %
12.08.2019 16:58 17,1 C 19,4 C 16,1 C 89 % 1013,6 hPa 0,0 l/m 2 min 0 min 570 W/m 16,1 km/h (3 Bft) 97,87 %
12.08.2019 17:00 17,2 C 20,6 C 16,7 C 89 % 1013,6 hPa 0,0 l/m 2 min 0 min 580 W/m 12,9 km/h (3 Bft) 97,83 %
12.08.2019 17:02 17,3 C 20,6 C 16,7 C 89 % 1013,6 hPa 0,0 l/m 2 min 0 min 584 W/m 12,9 km/h (3 Bft) 97,87 %
12.08.2019 17:04 17,4 C 20,0 C 16,7 C 90 % 1013,5 hPa 0,0 l/m 2 min 0 min 504 W/m 9,7 km/h (2 Bft) 93,62 %
12.08.2019 17:06 17,6 C 19,4 C 16,7 C 90 % 1013,5 hPa 0,0 l/m 2 min 0 min 334 W/m 12,9 km/h (3 Bft) 100,00 %
12.08.2019 17:08 17,6 C 18,9 C 16,7 C 89 % 1013,5 hPa 0,0 l/m 0 min 0 min 264 W/m 16,1 km/h (3 Bft) 100,00 %
12.08.2019 17:10 17,7 C 18,3 C 16,1 C 89 % 1013,5 hPa 0,0 l/m 0 min 0 min 227 W/m 9,7 km/h (2 Bft) 100,00 %
12.08.2019 17:12 17,7 C 18,3 C 16,1 C 89 % 1013,5 hPa 0,0 l/m 0 min 0 min 207 W/m 9,7 km/h (2 Bft) 100,00 %
12.08.2019 17:14 17,8 C 17,8 C 15,6 C 88 % 1013,4 hPa 0,0 l/m 0 min 0 min 209 W/m 16,1 km/h (3 Bft) 100,00 %
12.08.2019 17:16 17,8 C 17,8 C 15,6 C 87 % 1013,5 hPa 0,0 l/m 0 min 0 min 199 W/m 16,1 km/h (3 Bft) 100,00 %
12.08.2019 17:18 17,8 C 17,8 C 15,6 C 86 % 1013,5 hPa 0,0 l/m 0 min 0 min 185 W/m 12,9 km/h (3 Bft) 97,87 %
12.08.2019 17:20 17,8 C 17,8 C 15,0 C 85 % 1013,5 hPa 0,0 l/m 0 min 0 min 175 W/m 16,1 km/h (3 Bft) 100,00 %
12.08.2019 17:22 17,8 C 17,8 C 15,6 C 84 % 1013,6 hPa 0,0 l/m 0 min 0 min 177 W/m 9,7 km/h (2 Bft) 100,00 %
12.08.2019 17:24 17,8 C 17,8 C 15,6 C 84 % 1013,6 hPa 0,0 l/m 0 min 0 min 184 W/m 9,7 km/h (2 Bft) 97,87 %
12.08.2019 17:26 17,9 C 17,8 C 15,6 C 83 % 1013,6 hPa 0,0 l/m 0 min 0 min 164 W/m 9,7 km/h (2 Bft) 95,65 %
12.08.2019 17:28 17,9 C 17,8 C 15,6 C 83 % 1013,7 hPa 0,0 l/m 0 min 0 min 128 W/m 9,7 km/h (2 Bft) 100,00 %
12.08.2019 17:30 17,9 C 17,8 C 15,6 C 83 % 1013,7 hPa 0,0 l/m 0 min 0 min 104 W/m 16,1 km/h (3 Bft) 100,00 %
12.08.2019 17:32 17,9 C 17,8 C 15,0 C 83 % 1013,6 hPa 0,0 l/m 0 min 0 min 92 W/m 12,9 km/h (3 Bft) 100,00 %
12.08.2019 17:34 17,9 C 17,2 C 15,0 C 82 % 1013,7 hPa 0,0 l/m 0 min 0 min 84 W/m 12,9 km/h (3 Bft) 95,74 %
12.08.2019 17:36 17,9 C 17,2 C 15,0 C 82 % 1013,7 hPa 0,0 l/m 0 min 0 min 77 W/m 9,7 km/h (2 Bft) 100,00 %
12.08.2019 17:38 17,9 C 17,2 C 15,0 C 82 % 1013,9 hPa 0,0 l/m 0 min 0 min 69 W/m 6,4 km/h (2 Bft) 97,83 %
12.08.2019 17:40 17,9 C 17,2 C 15,0 C 82 % 1013,8 hPa 0,0 l/m 0 min 0 min 56 W/m 0,0 km/h (0 Bft) 100,00 %
12.08.2019 17:42 17,9 C 17,2 C 15,0 C 82 % 1013,9 hPa 0,0 l/m 0 min 0 min 51 W/m 6,4 km/h (2 Bft) 100,00 %
12.08.2019 17:44 17,9 C 17,2 C 15,0 C 83 % 1013,9 hPa 0,0 l/m 0 min 0 min 49 W/m 6,4 km/h (2 Bft) 100,00 %
12.08.2019 17:46 17,9 C 16,7 C 15,0 C 83 % 1014,3 hPa 0,0 l/m 0 min 0 min 36 W/m 6,4 km/h (2 Bft) 100,00 %
12.08.2019 17:48 18,0 C 16,7 C 15,0 C 84 % 1014,8 hPa 0,0 l/m 0 min 0 min 15 W/m 16,1 km/h (3 Bft) 100,00 %
12.08.2019 17:50 17,8 C 16,1 C 15,0 C 85 % 1014,8 hPa 0,2 l/m 0 min 2 min 2 W/m 22,5 km/h (4 Bft) 100,00 %
12.08.2019 17:52 17,6 C 15,6 C 14,4 C 83 % 1015,0 hPa 0,0 l/m 0 min 2 min 0 W/m 12,9 km/h (3 Bft) 100,00 %
12.08.2019 17:54 17,4 C 15,0 C 13,9 C 83 % 1015,0 hPa 0,0 l/m 0 min 2 min 0 W/m 9,7 km/h (2 Bft) 100,00 %
12.08.2019 17:56 17,2 C 14,4 C 13,9 C 83 % 1015,0 hPa 0,0 l/m 0 min 2 min 0 W/m 12,9 km/h (3 Bft) 100,00 %
12.08.2019 17:58 17,1 C 13,9 C 13,9 C 83 % 1015,1 hPa 0,2 l/m 0 min 2 min 0 W/m 19,3 km/h (3 Bft) 100,00 %
12.08.2019 18:00 16,7 C 13,3 C 13,3 C 84 % 1015,1 hPa 0,4 l/m 0 min 2 min 5 W/m 19,3 km/h (3 Bft) 100,00 %
12.08.2019 18:02 16,4 C 12,8 C 13,3 C 85 % 1015,1 hPa 0,2 l/m 0 min 2 min 5 W/m 16,1 km/h (3 Bft) 97,87 %
12.08.2019 18:04 16,2 C 12,8 C 13,3 C 86 % 1015,2 hPa 0,6 l/m 0 min 2 min 5 W/m 12,9 km/h (3 Bft) 100,00 %
12.08.2019 18:08 15,8 C 12,8 C 13,3 C 87 % 1015,4 hPa 0,8 l/m 0 min 4 min 5 W/m 9,7 km/h (2 Bft) 98,94 %
12.08.2019 18:10 15,7 C 12,8 C 12,8 C 88 % 1015,3 hPa 0,4 l/m 0 min 2 min 5 W/m 6,4 km/h (2 Bft) 100,00 %
12.08.2019 18:12 15,6 C 12,8 C 12,8 C 88 % 1015,3 hPa 0,2 l/m 0 min 2 min 5 W/m 6,4 km/h (2 Bft) 100,00 %
12.08.2019 18:14 15,5 C 12,8 C 13,3 C 88 % 1015,4 hPa 0,2 l/m 0 min 2 min 5 W/m 9,7 km/h (2 Bft) 100,00 %
12.08.2019 18:16 15,4 C 12,8 C 12,8 C 89 % 1015,3 hPa 0,0 l/m 0 min 2 min 5 W/m 9,7 km/h (2 Bft) 100,00 %
12.08.2019 18:18 15,3 C 12,8 C 12,8 C 89 % 1015,2 hPa 0,2 l/m 0 min 2 min 5 W/m 9,7 km/h (2 Bft) 100,00 %
12.08.2019 18:20 15,2 C 12,8 C 12,8 C 89 % 1015,1 hPa 0,2 l/m 0 min 2 min 5 W/m 9,7 km/h (2 Bft) 100,00 %
12.08.2019 18:22 15,1 C 12,8 C 12,8 C 90 % 1015,2 hPa 0,0 l/m 0 min 2 min 7 W/m 6,4 km/h (2 Bft) 100,00 %
12.08.2019 18:24 15,0 C 12,8 C 12,8 C 90 % 1015,1 hPa 0,0 l/m 0 min 2 min 7 W/m 6,4 km/h (2 Bft) 97,83 %
12.08.2019 18:26 14,9 C 12,8 C 12,8 C 90 % 1014,9 hPa 0,0 l/m 0 min 2 min 7 W/m 0,0 km/h (0 Bft) 95,74 %
12.08.2019 18:28 14,9 C 12,8 C 12,8 C 90 % 1014,8 hPa 0,2 l/m 0 min 2 min 9 W/m 3,2 km/h (1 Bft) 100,00 %
12.08.2019 18:30 14,8 C 12,8 C 12,8 C 90 % 1014,6 hPa 0,0 l/m 0 min 2 min 9 W/m 0,0 km/h (0 Bft) 97,87 %
12.08.2019 18:32 14,8 C 12,8 C 12,8 C 91 % 1014,7 hPa 0,2 l/m 0 min 2 min 11 W/m 3,2 km/h (1 Bft) 100,00 %
12.08.2019 18:34 14,8 C 12,8 C 12,8 C 91 % 1014,6 hPa 0,2 l/m 0 min 2 min 13 W/m 3,2 km/h (1 Bft) 97,87 %
12.08.2019 18:36 14,7 C 12,8 C 12,8 C 91 % 1014,5 hPa 0,2 l/m 0 min 2 min 18 W/m 0,0 km/h (0 Bft) 100,00 %
12.08.2019 18:38 14,7 C 12,8 C 12,8 C 91 % 1014,5 hPa 0,0 l/m 0 min 0 min 23 W/m 0,0 km/h (0 Bft) 97,87 %
12.08.2019 18:40 14,7 C 12,8 C 12,8 C 91 % 1014,5 hPa 0,0 l/m 0 min 0 min 28 W/m 6,4 km/h (2 Bft) 97,87 %
12.08.2019 18:42 14,7 C 12,8 C 13,3 C 91 % 1014,2 hPa 0,0 l/m 0 min 0 min 38 W/m 0,0 km/h (0 Bft) 97,87 %
12.08.2019 18:44 14,7 C 12,8 C 13,3 C 92 % 1014,2 hPa 0,0 l/m 0 min 0 min 47 W/m 0,0 km/h (0 Bft) 95,74 %
12.08.2019 18:46 14,6 C 13,3 C 13,3 C 92 % 1014,3 hPa 0,0 l/m 0 min 0 min 53 W/m 0,0 km/h (0 Bft) 97,87 %
12.08.2019 18:48 14,6 C 13,3 C 13,3 C 92 % 1014,4 hPa 0,0 l/m 0 min 0 min 54 W/m 0,0 km/h (0 Bft) 97,83 %
12.08.2019 18:50 14,7 C 13,3 C 13,3 C 92 % 1014,4 hPa 0,0 l/m 0 min 0 min 53 W/m 0,0 km/h (0 Bft) 95,74 %
12.08.2019 18:52 14,7 C 13,3 C 13,3 C 93 % 1014,4 hPa 0,0 l/m 0 min 0 min 46 W/m 0,0 km/h (0 Bft) 95,74 %
12.08.2019 18:54 14,7 C 13,3 C 13,3 C 93 % 1014,3 hPa 0,0 l/m 0 min 0 min 41 W/m 0,0 km/h (0 Bft) 97,87 %
12.08.2019 18:56 14,6 C 13,3 C 13,3 C 93 % 1014,2 hPa 0,0 l/m 0 min 0 min 42 W/m 0,0 km/h (0 Bft) 97,87 %
12.08.2019 18:58 14,6 C 13,3 C 13,3 C 93 % 1014,2 hPa 0,0 l/m 0 min 0 min 44 W/m 0,0 km/h (0 Bft) 97,87 %
12.08.2019 19:00 14,6 C 13,3 C 13,3 C 93 % 1014,2 hPa 0,0 l/m 0 min 0 min 42 W/m 0,0 km/h (0 Bft) 97,83 %
12.08.2019 19:02 14,6 C 13,3 C 13,3 C 93 % 1014,2 hPa 0,0 l/m 0 min 0 min 38 W/m 0,0 km/h (0 Bft) 97,87 %
12.08.2019 19:04 14,6 C 13,3 C 13,3 C 93 % 1014,2 hPa 0,0 l/m 0 min 0 min 36 W/m 0,0 km/h (0 Bft) 95,74 %
12.08.2019 19:06 14,6 C 13,3 C 13,3 C 93 % 1014,2 hPa 0,0 l/m 0 min 0 min 33 W/m 0,0 km/h (0 Bft) 95,74 %
12.08.2019 19:08 14,6 C 13,3 C 13,3 C 93 % 1014,2 hPa 0,0 l/m 0 min 0 min 32 W/m 0,0 km/h (0 Bft) 95,74 %
12.08.2019 19:10 14,6 C 13,3 C 13,3 C 93 % 1014,2 hPa 0,0 l/m 0 min 0 min 29 W/m 0,0 km/h (0 Bft) 93,48 %
12.08.2019 19:12 14,5 C 13,3 C 13,3 C 93 % 1014,2 hPa 0,0 l/m 0 min 0 min 25 W/m 0,0 km/h (0 Bft) 91,49 %
12.08.2019 19:14 14,5 C 12,8 C 13,3 C 93 % 1014,3 hPa 0,0 l/m 0 min 0 min 22 W/m 0,0 km/h (0 Bft) 95,74 %
12.08.2019 19:16 14,5 C 13,3 C 13,3 C 93 % 1014,2 hPa 0,0 l/m 0 min 0 min 23 W/m 0,0 km/h (0 Bft) 95,74 %
12.08.2019 19:18 14,4 C 13,3 C 13,3 C 93 % 1014,3 hPa 0,0 l/m 0 min 0 min 24 W/m 0,0 km/h (0 Bft) 95,74 %
12.08.2019 19:20 14,4 C 13,3 C 13,3 C 93 % 1014,3 hPa 0,0 l/m 0 min 0 min 25 W/m 0,0 km/h (0 Bft) 95,74 %
12.08.2019 19:22 14,4 C 12,8 C 13,3 C 93 % 1014,4 hPa 0,0 l/m 0 min 0 min 25 W/m 3,2 km/h (1 Bft) 97,83 %
12.08.2019 19:24 14,4 C 12,8 C 13,3 C 94 % 1014,4 hPa 0,0 l/m 0 min 0 min 25 W/m 0,0 km/h (0 Bft) 95,74 %
12.08.2019 19:26 14,4 C 12,8 C 13,3 C 94 % 1014,4 hPa 0,0 l/m 0 min 0 min 25 W/m 0,0 km/h (0 Bft) 93,62 %
12.08.2019 19:28 14,4 C 12,8 C 12,8 C 94 % 1014,4 hPa 0,0 l/m 0 min 0 min 24 W/m 0,0 km/h (0 Bft) 95,74 %
12.08.2019 19:30 14,4 C 12,8 C 12,8 C 94 % 1014,5 hPa 0,0 l/m 0 min 0 min 23 W/m 0,0 km/h (0 Bft) 95,74 %
12.08.2019 19:32 14,3 C 12,8 C 12,8 C 94 % 1014,6 hPa 0,0 l/m 0 min 0 min 23 W/m 0,0 km/h (0 Bft) 95,74 %
12.08.2019 19:34 14,3 C 12,8 C 12,8 C 94 % 1014,5 hPa 0,0 l/m 0 min 0 min 23 W/m 0,0 km/h (0 Bft) 95,65 %
12.08.2019 19:36 14,3 C 12,8 C 12,8 C 94 % 1014,6 hPa 0,0 l/m 0 min 0 min 23 W/m 0,0 km/h (0 Bft) 95,74 %
12.08.2019 19:38 14,3 C 12,8 C 12,8 C 94 % 1014,5 hPa 0,0 l/m 0 min 0 min 23 W/m 0,0 km/h (0 Bft) 95,74 %
12.08.2019 19:40 14,3 C 12,8 C 12,8 C 94 % 1014,6 hPa 0,0 l/m 0 min 0 min 23 W/m 0,0 km/h (0 Bft) 93,62 %
12.08.2019 19:42 14,2 C 12,8 C 12,8 C 94 % 1014,5 hPa 0,0 l/m 0 min 0 min 23 W/m 0,0 km/h (0 Bft) 95,74 %
12.08.2019 19:44 14,2 C 12,8 C 12,8 C 94 % 1014,5 hPa 0,0 l/m 0 min 0 min 21 W/m 0,0 km/h (0 Bft) 95,74 %
12.08.2019 19:46 14,2 C 12,8 C 12,8 C 94 % 1014,5 hPa 0,0 l/m 0 min 0 min 21 W/m 6,4 km/h (2 Bft) 93,48 %
12.08.2019 19:48 14,2 C 13,3 C 12,8 C 94 % 1014,4 hPa 0,0 l/m 0 min 0 min 23 W/m 6,4 km/h (2 Bft) 97,87 %
12.08.2019 19:50 14,2 C 13,3 C 12,8 C 94 % 1014,4 hPa 0,0 l/m 0 min 2 min 26 W/m 6,4 km/h (2 Bft) 95,74 %
12.08.2019 19:52 14,2 C 13,3 C 12,8 C 94 % 1014,4 hPa 0,0 l/m 0 min 0 min 30 W/m 3,2 km/h (1 Bft) 93,62 %
12.08.2019 19:54 14,2 C 12,8 C 12,8 C 94 % 1014,4 hPa 0,0 l/m 0 min 2 min 33 W/m 9,7 km/h (2 Bft) 97,87 %
12.08.2019 19:56 14,2 C 13,3 C 12,8 C 94 % 1014,5 hPa 0,0 l/m 0 min 0 min 38 W/m 9,7 km/h (2 Bft) 97,87 %
12.08.2019 19:58 14,2 C 13,3 C 12,8 C 94 % 1014,5 hPa 0,0 l/m 0 min 0 min 41 W/m 6,4 km/h (2 Bft) 95,65 %
12.08.2019 20:00 14,2 C 13,3 C 12,8 C 94 % 1014,5 hPa 0,0 l/m 0 min 0 min 46 W/m 6,4 km/h (2 Bft) 97,87 %
12.08.2019 20:02 14,2 C 13,3 C 12,8 C 94 % 1014,5 hPa 0,0 l/m 0 min 0 min 51 W/m 0,0 km/h (0 Bft) 97,87 %
12.08.2019 20:04 14,2 C 13,3 C 12,8 C 94 % 1014,7 hPa 0,0 l/m 0 min 0 min 56 W/m 0,0 km/h (0 Bft) 97,87 %
12.08.2019 20:06 14,2 C 13,3 C 12,8 C 95 % 1014,7 hPa 0,0 l/m 0 min 0 min 62 W/m 0,0 km/h (0 Bft) 97,87 %
12.08.2019 20:08 14,2 C 13,3 C 13,3 C 95 % 1014,7 hPa 0,0 l/m 2 min 0 min 71 W/m 6,4 km/h (2 Bft) 97,87 %
12.08.2019 20:10 14,2 C 13,3 C 13,3 C 95 % 1014,7 hPa 0,0 l/m 2 min 0 min 77 W/m 3,2 km/h (1 Bft) 97,83 %
12.08.2019 20:12 14,3 C 13,3 C 13,3 C 95 % 1014,7 hPa 0,0 l/m 2 min 0 min 77 W/m 6,4 km/h (2 Bft) 95,74 %
12.08.2019 20:14 14,3 C 13,3 C 13,3 C 95 % 1014,7 hPa 0,0 l/m 2 min 0 min 76 W/m 6,4 km/h (2 Bft) 97,87 %
12.08.2019 20:16 14,3 C 13,3 C 13,3 C 95 % 1014,7 hPa 0,0 l/m 2 min 0 min 70 W/m 3,2 km/h (1 Bft) 97,87 %
12.08.2019 20:18 14,3 C 13,3 C 13,3 C 95 % 1014,7 hPa 0,0 l/m 2 min 0 min 63 W/m 6,4 km/h (2 Bft) 97,87 %
12.08.2019 20:20 14,3 C 13,3 C 13,3 C 95 % 1014,7 hPa 0,0 l/m 2 min 0 min 57 W/m 6,4 km/h (2 Bft) 97,83 %
12.08.2019 20:22 14,4 C 13,3 C 12,8 C 95 % 1014,8 hPa 0,0 l/m 2 min 0 min 52 W/m 6,4 km/h (2 Bft) 97,87 %
12.08.2019 20:24 14,4 C 13,3 C 12,8 C 95 % 1014,7 hPa 0,0 l/m 2 min 0 min 48 W/m 6,4 km/h (2 Bft) 97,87 %
12.08.2019 20:26 14,4 C 13,3 C 12,8 C 95 % 1014,8 hPa 0,0 l/m 2 min 0 min 45 W/m 6,4 km/h (2 Bft) 100,00 %
12.08.2019 20:28 14,4 C 13,3 C 12,8 C 95 % 1014,8 hPa 0,0 l/m 2 min 0 min 40 W/m 6,4 km/h (2 Bft) 100,00 %
12.08.2019 20:30 14,3 C 13,3 C 12,8 C 95 % 1014,7 hPa 0,0 l/m 2 min 0 min 37 W/m 6,4 km/h (2 Bft) 100,00 %
12.08.2019 20:32 14,4 C 13,3 C 12,8 C 95 % 1014,6 hPa 0,0 l/m 2 min 0 min 32 W/m 6,4 km/h (2 Bft) 95,65 %
12.08.2019 20:34 14,3 C 13,3 C 12,8 C 95 % 1014,7 hPa 0,0 l/m 2 min 0 min 30 W/m 9,7 km/h (2 Bft) 100,00 %
12.08.2019 20:36 14,3 C 13,3 C 12,8 C 95 % 1014,7 hPa 0,0 l/m 2 min 0 min 26 W/m 9,7 km/h (2 Bft) 100,00 %
12.08.2019 20:38 14,3 C 13,3 C 12,8 C 95 % 1014,8 hPa 0,0 l/m 2 min 0 min 24 W/m 6,4 km/h (2 Bft) 100,00 %
12.08.2019 20:40 14,3 C 13,3 C 12,8 C 95 % 1014,9 hPa 0,0 l/m 0 min 0 min 20 W/m 3,2 km/h (1 Bft) 100,00 %
12.08.2019 20:42 14,3 C 13,3 C 12,8 C 95 % 1014,8 hPa 0,0 l/m 0 min 0 min 19 W/m 0,0 km/h (0 Bft) 97,87 %
12.08.2019 20:44 14,3 C 13,3 C 12,8 C 95 % 1014,7 hPa 0,0 l/m 0 min 0 min 17 W/m 9,7 km/h (2 Bft) 100,00 %
12.08.2019 20:46 14,2 C 12,8 C 12,8 C 95 % 1014,9 hPa 0,0 l/m 0 min 0 min 15 W/m 9,7 km/h (2 Bft) 97,87 %
12.08.2019 20:48 14,2 C 12,8 C 12,8 C 95 % 1015,0 hPa 0,0 l/m 0 min 0 min 13 W/m 3,2 km/h (1 Bft) 100,00 %
12.08.2019 20:50 14,2 C 12,8 C 12,8 C 95 % 1015,0 hPa 0,0 l/m 0 min 0 min 11 W/m 9,7 km/h (2 Bft) 95,74 %
12.08.2019 20:52 14,2 C 12,8 C 12,8 C 95 % 1015,0 hPa 0,0 l/m 0 min 0 min 10 W/m 9,7 km/h (2 Bft) 97,87 %
12.08.2019 20:54 14,2 C 12,8 C 12,2 C 95 % 1015,0 hPa 0,0 l/m 0 min 0 min 7 W/m 6,4 km/h (2 Bft) 100,00 %
12.08.2019 20:56 14,2 C 12,8 C 12,8 C 95 % 1015,1 hPa 0,0 l/m 0 min 0 min 6 W/m 6,4 km/h (2 Bft) 100,00 %
12.08.2019 20:58 14,2 C 12,8 C 12,2 C 95 % 1015,1 hPa 0,0 l/m 0 min 0 min 5 W/m 3,2 km/h (1 Bft) 95,74 %
12.08.2019 21:00 14,2 C 12,8 C 12,2 C 95 % 1015,0 hPa 0,0 l/m 0 min 0 min 1 W/m 9,7 km/h (2 Bft) 97,87 %
12.08.2019 21:02 14,2 C 12,8 C 12,2 C 95 % 1015,0 hPa 0,0 l/m 0 min 0 min 0 W/m 9,7 km/h (2 Bft) 97,87 %
12.08.2019 21:04 14,2 C 12,8 C 12,2 C 95 % 1015,0 hPa 0,0 l/m 0 min 0 min 0 W/m 3,2 km/h (1 Bft) 100,00 %
12.08.2019 21:06 14,1 C 12,8 C 12,2 C 95 % 1015,1 hPa 0,0 l/m 0 min 0 min 0 W/m 3,2 km/h (1 Bft) 100,00 %
12.08.2019 21:08 14,1 C 12,8 C 12,2 C 95 % 1015,1 hPa 0,0 l/m 0 min 0 min 0 W/m 3,2 km/h (1 Bft) 100,00 %
12.08.2019 21:10 14,1 C 12,8 C 12,2 C 95 % 1015,1 hPa 0,0 l/m 0 min 0 min 0 W/m 6,4 km/h (2 Bft) 93,62 %
12.08.2019 21:12 14,0 C 12,8 C 12,2 C 95 % 1015,1 hPa 0,0 l/m 0 min 0 min 0 W/m 9,7 km/h (2 Bft) 95,74 %
12.08.2019 21:14 14,0 C 12,8 C 12,2 C 95 % 1015,1 hPa 0,0 l/m 0 min 0 min 0 W/m 3,2 km/h (1 Bft) 100,00 %
12.08.2019 21:16 13,9 C 12,8 C 12,2 C 95 % 1015,2 hPa 0,0 l/m 0 min 0 min 0 W/m 6,4 km/h (2 Bft) 100,00 %
12.08.2019 21:18 13,9 C 12,8 C 12,2 C 95 % 1015,2 hPa 0,0 l/m 0 min 0 min 0 W/m 9,7 km/h (2 Bft) 100,00 %
12.08.2019 21:20 13,9 C 12,8 C 12,2 C 95 % 1015,3 hPa 0,0 l/m 0 min 0 min 0 W/m 6,4 km/h (2 Bft) 95,74 %
12.08.2019 21:22 13,9 C 12,8 C 12,2 C 95 % 1015,3 hPa 0,0 l/m 0 min 0 min 0 W/m 6,4 km/h (2 Bft) 97,87 %
12.08.2019 21:24 13,9 C 12,8 C 12,2 C 95 % 1015,3 hPa 0,0 l/m 0 min 0 min 0 W/m 3,2 km/h (1 Bft) 97,87 %
12.08.2019 21:26 13,9 C 12,2 C 12,2 C 95 % 1015,3 hPa 0,0 l/m 0 min 0 min 0 W/m 3,2 km/h (1 Bft) 97,87 %
12.08.2019 21:28 13,8 C 12,2 C 12,2 C 95 % 1015,4 hPa 0,0 l/m 0 min 0 min 0 W/m 3,2 km/h (1 Bft) 95,74 %
12.08.2019 21:30 13,8 C 12,2 C 12,2 C 95 % 1015,3 hPa 0,0 l/m 0 min 0 min 0 W/m 3,2 km/h (1 Bft) 97,83 %
12.08.2019 21:32 13,8 C 12,2 C 12,2 C 95 % 1015,4 hPa 0,0 l/m 0 min 0 min 0 W/m 3,2 km/h (1 Bft) 97,87 %
12.08.2019 21:34 13,8 C 12,2 C 12,2 C 95 % 1015,4 hPa 0,0 l/m 0 min 0 min 0 W/m 6,4 km/h (2 Bft) 95,74 %
12.08.2019 21:36 13,8 C 12,2 C 12,2 C 95 % 1015,4 hPa 0,0 l/m 0 min 0 min 0 W/m 0,0 km/h (0 Bft) 95,74 %
12.08.2019 21:38 13,7 C 12,2 C 12,2 C 95 % 1015,4 hPa 0,0 l/m 0 min 0 min 0 W/m 0,0 km/h (0 Bft) 95,74 %
12.08.2019 21:40 13,7 C 12,2 C 12,2 C 95 % 1015,4 hPa 0,0 l/m 0 min 0 min 0 W/m 0,0 km/h (0 Bft) 97,87 %
12.08.2019 21:42 13,7 C 12,2 C 12,2 C 95 % 1015,4 hPa 0,0 l/m 0 min 0 min 0 W/m 0,0 km/h (0 Bft) 93,48 %
12.08.2019 21:44 13,7 C 12,2 C 12,2 C 95 % 1015,4 hPa 0,0 l/m 0 min 0 min 0 W/m 0,0 km/h (0 Bft) 97,87 %
12.08.2019 21:46 13,7 C 12,2 C 12,2 C 95 % 1015,2 hPa 0,0 l/m 0 min 0 min 0 W/m 0,0 km/h (0 Bft) 95,74 %
12.08.2019 21:48 13,7 C 12,2 C 12,2 C 95 % 1015,2 hPa 0,0 l/m 0 min 0 min 0 W/m 0,0 km/h (0 Bft) 91,49 %
12.08.2019 21:50 13,6 C 12,2 C 12,2 C 95 % 1015,1 hPa 0,0 l/m 0 min 0 min 0 W/m 0,0 km/h (0 Bft) 93,62 %
12.08.2019 21:52 13,6 C 12,2 C 12,2 C 95 % 1015,1 hPa 0,0 l/m 0 min 0 min 0 W/m 0,0 km/h (0 Bft) 93,62 %
12.08.2019 21:54 13,6 C 12,2 C 12,2 C 95 % 1015,1 hPa 0,0 l/m 0 min 0 min 0 W/m 9,7 km/h (2 Bft) 95,65 %
12.08.2019 21:56 13,6 C 12,2 C 12,2 C 95 % 1015,0 hPa 0,0 l/m 0 min 0 min 0 W/m 3,2 km/h (1 Bft) 93,62 %
12.08.2019 21:58 13,6 C 12,2 C 11,7 C 96 % 1015,1 hPa 0,0 l/m 0 min 0 min 0 W/m 6,4 km/h (2 Bft) 95,74 %
12.08.2019 22:00 13,6 C 12,2 C 11,7 C 96 % 1015,0 hPa 0,0 l/m 0 min 0 min 0 W/m 3,2 km/h (1 Bft) 95,74 %
12.08.2019 22:02 13,5 C 12,2 C 11,7 C 96 % 1015,1 hPa 0,0 l/m 0 min 0 min 0 W/m 0,0 km/h (0 Bft) 95,74 %
12.08.2019 22:04 13,5 C 12,2 C 11,7 C 96 % 1015,0 hPa 0,0 l/m 0 min 0 min 0 W/m 0,0 km/h (0 Bft) 93,62 %
12.08.2019 22:06 13,5 C 12,2 C 11,7 C 96 % 1015,0 hPa 0,0 l/m 0 min 0 min 0 W/m 0,0 km/h (0 Bft) 95,65 %
12.08.2019 22:08 13,4 C 12,2 C 11,7 C 96 % 1015,1 hPa 0,0 l/m 0 min 0 min 0 W/m 0,0 km/h (0 Bft) 95,74 %
12.08.2019 22:10 13,4 C 12,2 C 11,7 C 96 % 1015,1 hPa 0,0 l/m 0 min 0 min 0 W/m 0,0 km/h (0 Bft) 97,87 %
12.08.2019 22:12 13,4 C 12,2 C 11,7 C 96 % 1015,2 hPa 0,0 l/m 0 min 0 min 0 W/m 6,4 km/h (2 Bft) 93,62 %
12.08.2019 22:14 13,4 C 12,2 C 11,7 C 96 % 1015,2 hPa 0,0 l/m 0 min 0 min 0 W/m 3,2 km/h (1 Bft) 97,87 %
12.08.2019 22:16 13,4 C 12,2 C 11,7 C 96 % 1015,1 hPa 0,0 l/m 0 min 0 min 0 W/m 9,7 km/h (2 Bft) 95,65 %
12.08.2019 22:18 13,4 C 12,2 C 11,7 C 96 % 1015,2 hPa 0,0 l/m 0 min 0 min 0 W/m 0,0 km/h (0 Bft) 97,87 %
12.08.2019 22:20 13,3 C 12,2 C 11,7 C 96 % 1015,1 hPa 0,0 l/m 0 min 0 min 0 W/m 3,2 km/h (1 Bft) 97,87 %
12.08.2019 22:22 13,3 C 12,2 C 11,7 C 96 % 1015,1 hPa 0,0 l/m 0 min 0 min 0 W/m 3,2 km/h (1 Bft) 93,62 %
12.08.2019 22:24 13,3 C 12,2 C 11,7 C 96 % 1015,1 hPa 0,0 l/m 0 min 0 min 0 W/m 3,2 km/h (1 Bft) 95,74 %
12.08.2019 22:26 13,3 C 12,2 C 11,7 C 96 % 1015,0 hPa 0,0 l/m 0 min 0 min 0 W/m 3,2 km/h (1 Bft) 95,74 %
12.08.2019 22:28 13,3 C 12,2 C 11,7 C 96 % 1015,0 hPa 0,0 l/m 0 min 0 min 0 W/m 3,2 km/h (1 Bft) 95,65 %
12.08.2019 22:30 13,3 C 12,2 C 11,7 C 96 % 1015,1 hPa 0,0 l/m 0 min 0 min 0 W/m 3,2 km/h (1 Bft) 97,87 %
12.08.2019 22:32 13,3 C 12,2 C 11,7 C 96 % 1015,1 hPa 0,0 l/m 0 min 0 min 0 W/m 6,4 km/h (2 Bft) 97,87 %
12.08.2019 22:34 13,2 C 12,2 C 11,7 C 96 % 1015,1 hPa 0,0 l/m 0 min 0 min 0 W/m 0,0 km/h (0 Bft) 97,87 %
12.08.2019 22:36 13,2 C 12,2 C 11,7 C 96 % 1015,1 hPa 0,0 l/m 0 min 0 min 0 W/m 0,0 km/h (0 Bft) 97,87 %
12.08.2019 22:38 13,2 C 12,2 C 11,7 C 96 % 1015,1 hPa 0,0 l/m 0 min 0 min 0 W/m 0,0 km/h (0 Bft) 100,00 %
12.08.2019 22:40 13,2 C 12,2 C 11,7 C 96 % 1015,1 hPa 0,0 l/m 0 min 0 min 0 W/m 0,0 km/h (0 Bft) 100,00 %
12.08.2019 22:42 13,2 C 12,2 C 11,7 C 96 % 1015,1 hPa 0,0 l/m 0 min 0 min 0 W/m 0,0 km/h (0 Bft) 97,87 %
12.08.2019 22:44 13,2 C 12,2 C 11,7 C 96 % 1015,3 hPa 0,0 l/m 0 min 0 min 0 W/m 3,2 km/h (1 Bft) 100,00 %
12.08.2019 22:46 13,2 C 12,2 C 11,7 C 96 % 1015,2 hPa 0,0 l/m 0 min 0 min 0 W/m 0,0 km/h (0 Bft) 97,87 %
12.08.2019 22:48 13,2 C 12,2 C 11,7 C 96 % 1015,1 hPa 0,0 l/m 0 min 0 min 0 W/m 3,2 km/h (1 Bft) 97,87 %
12.08.2019 22:50 13,2 C 12,2 C 11,7 C 96 % 1015,2 hPa 0,0 l/m 0 min 0 min 0 W/m 3,2 km/h (1 Bft) 100,00 %
12.08.2019 22:52 13,2 C 12,2 C 11,7 C 96 % 1015,3 hPa 0,0 l/m 0 min 0 min 0 W/m 6,4 km/h (2 Bft) 97,83 %
12.08.2019 22:54 13,2 C 12,2 C 11,7 C 96 % 1015,1 hPa 0,0 l/m 0 min 0 min 0 W/m 3,2 km/h (1 Bft) 100,00 %
12.08.2019 22:56 13,2 C 12,2 C 11,7 C 96 % 1015,1 hPa 0,0 l/m 0 min 0 min 0 W/m 3,2 km/h (1 Bft) 100,00 %
12.08.2019 22:58 13,2 C 12,2 C 11,7 C 96 % 1015,1 hPa 0,0 l/m 0 min 0 min 0 W/m 3,2 km/h (1 Bft) 100,00 %
12.08.2019 23:00 13,2 C 12,2 C 11,7 C 96 % 1015,1 hPa 0,0 l/m 0 min 0 min 0 W/m 3,2 km/h (1 Bft) 97,87 %
12.08.2019 23:02 13,2 C 12,2 C 11,7 C 96 % 1015,1 hPa 0,0 l/m 0 min 0 min 0 W/m 3,2 km/h (1 Bft) 95,74 %
12.08.2019 23:04 13,2 C 12,2 C 11,7 C 96 % 1015,1 hPa 0,0 l/m 0 min 0 min 0 W/m 3,2 km/h (1 Bft) 95,65 %
12.08.2019 23:06 13,2 C 12,2 C 11,7 C 96 % 1015,1 hPa 0,0 l/m 0 min 0 min 0 W/m 3,2 km/h (1 Bft) 97,87 %
12.08.2019 23:08 13,2 C 12,2 C 11,7 C 96 % 1015,2 hPa 0,0 l/m 0 min 0 min 0 W/m 3,2 km/h (1 Bft) 97,87 %
12.08.2019 23:10 13,2 C 12,2 C 11,7 C 96 % 1015,3 hPa 0,0 l/m 0 min 0 min 0 W/m 6,4 km/h (2 Bft) 95,74 %
12.08.2019 23:12 13,2 C 12,2 C 11,7 C 96 % 1015,2 hPa 0,0 l/m 0 min 0 min 0 W/m 0,0 km/h (0 Bft) 97,87 %
12.08.2019 23:14 13,1 C 12,2 C 11,7 C 96 % 1015,3 hPa 0,0 l/m 0 min 0 min 0 W/m 6,4 km/h (2 Bft) 97,87 %
12.08.2019 23:16 13,1 C 12,2 C 11,7 C 96 % 1015,3 hPa 0,0 l/m 0 min 0 min 0 W/m 3,2 km/h (1 Bft) 93,48 %
12.08.2019 23:18 13,1 C 12,2 C 11,7 C 96 % 1015,3 hPa 0,0 l/m 0 min 0 min 0 W/m 3,2 km/h (1 Bft) 97,87 %
12.08.2019 23:20 13,1 C 12,2 C 11,7 C 96 % 1015,3 hPa 0,0 l/m 0 min 0 min 0 W/m 3,2 km/h (1 Bft) 97,87 %
12.08.2019 23:22 13,1 C 12,2 C 11,7 C 96 % 1015,2 hPa 0,0 l/m 0 min 0 min 0 W/m 3,2 km/h (1 Bft) 97,87 %
12.08.2019 23:24 13,1 C 12,2 C 11,7 C 96 % 1015,3 hPa 0,0 l/m 0 min 0 min 0 W/m 3,2 km/h (1 Bft) 97,87 %
12.08.2019 23:26 13,1 C 12,2 C 11,7 C 96 % 1015,2 hPa 0,0 l/m 0 min 0 min 0 W/m 3,2 km/h (1 Bft) 97,83 %
12.08.2019 23:28 13,1 C 12,2 C 11,7 C 96 % 1015,2 hPa 0,0 l/m 0 min 0 min 0 W/m 0,0 km/h (0 Bft) 97,87 %
12.08.2019 23:30 13,1 C 12,2 C 11,7 C 96 % 1015,3 hPa 0,0 l/m 0 min 0 min 0 W/m 0,0 km/h (0 Bft) 97,87 %
12.08.2019 23:32 13,1 C 12,2 C 11,7 C 96 % 1015,3 hPa 0,0 l/m 0 min 0 min 0 W/m 0,0 km/h (0 Bft) 97,87 %
12.08.2019 23:34 13,1 C 12,2 C 11,7 C 96 % 1015,3 hPa 0,0 l/m 0 min 0 min 0 W/m 3,2 km/h (1 Bft) 97,87 %
12.08.2019 23:36 13,1 C 12,2 C 11,7 C 96 % 1015,3 hPa 0,0 l/m 0 min 0 min 0 W/m 3,2 km/h (1 Bft) 95,74 %
12.08.2019 23:38 13,1 C 11,7 C 11,7 C 96 % 1015,3 hPa 0,0 l/m 0 min 0 min 0 W/m 3,2 km/h (1 Bft) 97,87 %
12.08.2019 23:40 13,1 C 12,2 C 11,7 C 96 % 1015,3 hPa 0,0 l/m 0 min 0 min 0 W/m 3,2 km/h (1 Bft) 95,65 %
12.08.2019 23:42 13,1 C 12,2 C 11,7 C 96 % 1015,3 hPa 0,0 l/m 0 min 0 min 0 W/m 6,4 km/h (2 Bft) 97,87 %
12.08.2019 23:44 13,1 C 12,2 C 11,7 C 96 % 1015,3 hPa 0,0 l/m 0 min 0 min 0 W/m 3,2 km/h (1 Bft) 97,87 %
12.08.2019 23:46 13,1 C 12,2 C 11,7 C 96 % 1015,2 hPa 0,0 l/m 0 min 0 min 0 W/m 0,0 km/h (0 Bft) 95,74 %
12.08.2019 23:48 13,1 C 11,7 C 11,7 C 96 % 1015,3 hPa 0,0 l/m 0 min 0 min 0 W/m 0,0 km/h (0 Bft) 97,87 %
12.08.2019 23:50 13,1 C 11,7 C 11,7 C 96 % 1015,2 hPa 0,0 l/m 0 min 0 min 0 W/m 3,2 km/h (1 Bft) 97,83 %
12.08.2019 23:52 13,1 C 11,7 C 11,7 C 96 % 1015,4 hPa 0,0 l/m 0 min 0 min 0 W/m 0,0 km/h (0 Bft) 97,87 %
12.08.2019 23:54 13,1 C 11,7 C 11,7 C 96 % 1015,4 hPa 0,0 l/m 0 min 0 min 0 W/m 0,0 km/h (0 Bft) 97,87 %
12.08.2019 23:56 13,1 C 11,7 C 11,7 C 96 % 1015,3 hPa 0,0 l/m 0 min 0 min 0 W/m 3,2 km/h (1 Bft) 95,74 %
12.08.2019 23:58 13,1 C 11,7 C 11,7 C 96 % 1015,4 hPa 0,0 l/m 0 min 0 min 0 W/m 3,2 km/h (1 Bft) 97,87 %
_ Min-Zeit 23:14 23:38 21:58 14:08 15:14 - - - - 00:48 07:18
Minimum _ 13,1 C 11,7 C 11,7 C 50 % 1013,0 hPa - - - - 0,0 km/h (0 Bft) 25,00 %
_ Max-Zeit 14:04 13:22 14:02 21:58 07:12 15:52 08:40 18:08 14:36 15:52 00:56
Maximum _ 25,1 C 30,6 C 31,1 C 96 % 1015,5 hPa 3,0 l/m 2 min 4 min 1056 W/m 35,4 km/h
S (5 Bft)
100,00 %
Durchschnitt _ 17,4 C 17,4 C 16,8 C 78 % 1014,7 hPa #10,2 l/m #5:22 h #1:28 h 274 W/m 8,9 km/h (2 Bft) 97,34 %
© 2019 W. Hausmann